<?xml version="1.0" encoding="UTF-8" standalone="no" ?>
<gpx xmlns="http://www.topografix.com/GPX/1/1" xmlns:xsi="http://www.w3.org/2001/XMLSchema-instance" xsi:schemaLocation="http://www.topografix.com/GPX/1/1 http://www.topografix.com/GPX/1/1/gpx.xsd" version="1.1" creator="VisuGPX - https://www.visugpx.com">
  <metadata>
    <name>mtp pignan</name>
    <desc><![CDATA[
]]></desc>
  </metadata>
  <trk>
    <name><![CDATA[mtp pignan_1]]></name>
    <extensions>
      <line xmlns="http://www.topografix.com/GPX/gpx_style/0/2">
        <color>0000FF</color>
        <width>4</width>
      </line>
    </extensions>
    <trkseg>
      <trkpt lat="43.60207" lon="3.83092">
        <ele>59.479137</ele>
        <time>2022-08-10T05:27:57Z</time>
      </trkpt>
      <trkpt lat="43.60163" lon="3.83031">
        <ele>60.696362</ele>
        <time>2022-08-10T05:28:07Z</time>
      </trkpt>
      <trkpt lat="43.60127" lon="3.82988">
        <ele>62.623997</ele>
        <time>2022-08-10T05:28:17Z</time>
      </trkpt>
      <trkpt lat="43.60096" lon="3.82953">
        <ele>63.673344</ele>
        <time>2022-08-10T05:28:27Z</time>
      </trkpt>
      <trkpt lat="43.6007" lon="3.82925">
        <ele>64.062294</ele>
        <time>2022-08-10T05:28:37Z</time>
      </trkpt>
      <trkpt lat="43.60045" lon="3.82899">
        <ele>64.46479</ele>
        <time>2022-08-10T05:28:47Z</time>
      </trkpt>
      <trkpt lat="43.60009" lon="3.8287">
        <ele>65.245033</ele>
        <time>2022-08-10T05:28:57Z</time>
      </trkpt>
      <trkpt lat="43.59967" lon="3.82839">
        <ele>66.503212</ele>
        <time>2022-08-10T05:29:07Z</time>
      </trkpt>
      <trkpt lat="43.5993" lon="3.82809">
        <ele>67.121193</ele>
        <time>2022-08-10T05:29:17Z</time>
      </trkpt>
      <trkpt lat="43.59894" lon="3.82775">
        <ele>66.498314</ele>
        <time>2022-08-10T05:29:27Z</time>
      </trkpt>
      <trkpt lat="43.5985" lon="3.82723">
        <ele>64.186562</ele>
        <time>2022-08-10T05:29:37Z</time>
      </trkpt>
      <trkpt lat="43.5981" lon="3.82646">
        <ele>62.592945</ele>
        <time>2022-08-10T05:29:47Z</time>
      </trkpt>
      <trkpt lat="43.59761" lon="3.82584">
        <ele>63.761837</ele>
        <time>2022-08-10T05:29:57Z</time>
      </trkpt>
      <trkpt lat="43.59721" lon="3.82536">
        <ele>65.495758</ele>
        <time>2022-08-10T05:30:07Z</time>
      </trkpt>
      <trkpt lat="43.59693" lon="3.82501">
        <ele>65.894089</ele>
        <time>2022-08-10T05:30:17Z</time>
      </trkpt>
      <trkpt lat="43.59664" lon="3.82467">
        <ele>65.264725</ele>
        <time>2022-08-10T05:30:27Z</time>
      </trkpt>
      <trkpt lat="43.59617" lon="3.82408">
        <ele>63.872528</ele>
        <time>2022-08-10T05:30:37Z</time>
      </trkpt>
      <trkpt lat="43.59557" lon="3.82316">
        <ele>56.550446</ele>
        <time>2022-08-10T05:30:47Z</time>
      </trkpt>
      <trkpt lat="43.59495" lon="3.82229">
        <ele>49.644024</ele>
        <time>2022-08-10T05:30:57Z</time>
      </trkpt>
      <trkpt lat="43.59478" lon="3.82165">
        <ele>42.03833</ele>
        <time>2022-08-10T05:31:07Z</time>
      </trkpt>
      <trkpt lat="43.59431" lon="3.82107">
        <ele>39.418537</ele>
        <time>2022-08-10T05:31:17Z</time>
      </trkpt>
      <trkpt lat="43.59397" lon="3.82073">
        <ele>32.313313</ele>
        <time>2022-08-10T05:31:27Z</time>
      </trkpt>
      <trkpt lat="43.59363" lon="3.82095">
        <ele>29.208776</ele>
        <time>2022-08-10T05:31:37Z</time>
      </trkpt>
      <trkpt lat="43.59325" lon="3.82137">
        <ele>28.371658</ele>
        <time>2022-08-10T05:31:47Z</time>
      </trkpt>
      <trkpt lat="43.59342" lon="3.8209">
        <ele>28.898653</ele>
        <time>2022-08-10T05:31:57Z</time>
      </trkpt>
      <trkpt lat="43.59356" lon="3.82044">
        <ele>28.065825</ele>
        <time>2022-08-10T05:32:07Z</time>
      </trkpt>
      <trkpt lat="43.59311" lon="3.82013">
        <ele>27.842367</ele>
        <time>2022-08-10T05:32:17Z</time>
      </trkpt>
      <trkpt lat="43.59293" lon="3.81954">
        <ele>27.205088</ele>
        <time>2022-08-10T05:32:27Z</time>
      </trkpt>
      <trkpt lat="43.59277" lon="3.81875">
        <ele>27.036865</ele>
        <time>2022-08-10T05:32:37Z</time>
      </trkpt>
      <trkpt lat="43.59261" lon="3.81796">
        <ele>28.019758</ele>
        <time>2022-08-10T05:32:47Z</time>
      </trkpt>
      <trkpt lat="43.59216" lon="3.81776">
        <ele>28.732391</ele>
        <time>2022-08-10T05:32:57Z</time>
      </trkpt>
      <trkpt lat="43.59198" lon="3.81713">
        <ele>28.82686</ele>
        <time>2022-08-10T05:33:07Z</time>
      </trkpt>
      <trkpt lat="43.59177" lon="3.81653">
        <ele>28.453424</ele>
        <time>2022-08-10T05:33:17Z</time>
      </trkpt>
      <trkpt lat="43.59159" lon="3.81584">
        <ele>28.005859</ele>
        <time>2022-08-10T05:33:27Z</time>
      </trkpt>
      <trkpt lat="43.5914" lon="3.81504">
        <ele>27.784973</ele>
        <time>2022-08-10T05:33:37Z</time>
      </trkpt>
      <trkpt lat="43.59116" lon="3.81418">
        <ele>27.565756</ele>
        <time>2022-08-10T05:33:47Z</time>
      </trkpt>
      <trkpt lat="43.59086" lon="3.81347">
        <ele>28.566</ele>
        <time>2022-08-10T05:33:57Z</time>
      </trkpt>
      <trkpt lat="43.5905" lon="3.81286">
        <ele>29.210123</ele>
        <time>2022-08-10T05:34:07Z</time>
      </trkpt>
      <trkpt lat="43.59008" lon="3.81234">
        <ele>29.410971</ele>
        <time>2022-08-10T05:34:17Z</time>
      </trkpt>
      <trkpt lat="43.5896" lon="3.81188">
        <ele>28.887777</ele>
        <time>2022-08-10T05:34:27Z</time>
      </trkpt>
      <trkpt lat="43.58913" lon="3.81144">
        <ele>28.138428</ele>
        <time>2022-08-10T05:34:37Z</time>
      </trkpt>
      <trkpt lat="43.58866" lon="3.811">
        <ele>27.462484</ele>
        <time>2022-08-10T05:34:47Z</time>
      </trkpt>
      <trkpt lat="43.58825" lon="3.81046">
        <ele>27.43392</ele>
        <time>2022-08-10T05:34:57Z</time>
      </trkpt>
      <trkpt lat="43.58803" lon="3.80983">
        <ele>28.310465</ele>
        <time>2022-08-10T05:35:07Z</time>
      </trkpt>
      <trkpt lat="43.58807" lon="3.80921">
        <ele>29.988119</ele>
        <time>2022-08-10T05:35:17Z</time>
      </trkpt>
      <trkpt lat="43.58833" lon="3.80872">
        <ele>31.537436</ele>
        <time>2022-08-10T05:35:27Z</time>
      </trkpt>
      <trkpt lat="43.58865" lon="3.80827">
        <ele>33.58667</ele>
        <time>2022-08-10T05:35:37Z</time>
      </trkpt>
      <trkpt lat="43.58898" lon="3.80782">
        <ele>35.994038</ele>
        <time>2022-08-10T05:35:47Z</time>
      </trkpt>
      <trkpt lat="43.58929" lon="3.80738">
        <ele>37.355305</ele>
        <time>2022-08-10T05:35:57Z</time>
      </trkpt>
      <trkpt lat="43.58961" lon="3.80693">
        <ele>38.75</ele>
        <time>2022-08-10T05:36:07Z</time>
      </trkpt>
      <trkpt lat="43.58992" lon="3.80649">
        <ele>39.757813</ele>
        <time>2022-08-10T05:36:17Z</time>
      </trkpt>
      <trkpt lat="43.59022" lon="3.80608">
        <ele>39.781425</ele>
        <time>2022-08-10T05:36:27Z</time>
      </trkpt>
      <trkpt lat="43.59045" lon="3.80574">
        <ele>40.174007</ele>
        <time>2022-08-10T05:36:37Z</time>
      </trkpt>
      <trkpt lat="43.59067" lon="3.80533">
        <ele>40.480835</ele>
        <time>2022-08-10T05:36:47Z</time>
      </trkpt>
      <trkpt lat="43.59082" lon="3.80493">
        <ele>40.590057</ele>
        <time>2022-08-10T05:36:57Z</time>
      </trkpt>
      <trkpt lat="43.59094" lon="3.80448">
        <ele>40.930878</ele>
        <time>2022-08-10T05:37:07Z</time>
      </trkpt>
      <trkpt lat="43.59099" lon="3.80396">
        <ele>41.611816</ele>
        <time>2022-08-10T05:37:17Z</time>
      </trkpt>
      <trkpt lat="43.59098" lon="3.80339">
        <ele>42.451752</ele>
        <time>2022-08-10T05:37:27Z</time>
      </trkpt>
      <trkpt lat="43.5909" lon="3.80279">
        <ele>43.228596</ele>
        <time>2022-08-10T05:37:37Z</time>
      </trkpt>
      <trkpt lat="43.59071" lon="3.80216">
        <ele>43.709553</ele>
        <time>2022-08-10T05:37:47Z</time>
      </trkpt>
      <trkpt lat="43.59045" lon="3.80152">
        <ele>43.493393</ele>
        <time>2022-08-10T05:37:57Z</time>
      </trkpt>
      <trkpt lat="43.59023" lon="3.80084">
        <ele>43.088299</ele>
        <time>2022-08-10T05:38:07Z</time>
      </trkpt>
      <trkpt lat="43.58988" lon="3.80034">
        <ele>42.613499</ele>
        <time>2022-08-10T05:38:17Z</time>
      </trkpt>
      <trkpt lat="43.58953" lon="3.79964">
        <ele>41.442982</ele>
        <time>2022-08-10T05:38:27Z</time>
      </trkpt>
      <trkpt lat="43.58916" lon="3.79889">
        <ele>40.215431</ele>
        <time>2022-08-10T05:38:37Z</time>
      </trkpt>
      <trkpt lat="43.58883" lon="3.79814">
        <ele>39.026707</ele>
        <time>2022-08-10T05:38:47Z</time>
      </trkpt>
      <trkpt lat="43.58847" lon="3.79736">
        <ele>37.634228</ele>
        <time>2022-08-10T05:38:57Z</time>
      </trkpt>
      <trkpt lat="43.58809" lon="3.79658">
        <ele>36.093693</ele>
        <time>2022-08-10T05:39:07Z</time>
      </trkpt>
      <trkpt lat="43.58772" lon="3.79585">
        <ele>35.486816</ele>
        <time>2022-08-10T05:39:17Z</time>
      </trkpt>
      <trkpt lat="43.5874" lon="3.79512">
        <ele>35.006172</ele>
        <time>2022-08-10T05:39:27Z</time>
      </trkpt>
      <trkpt lat="43.58707" lon="3.79439">
        <ele>34.959881</ele>
        <time>2022-08-10T05:39:37Z</time>
      </trkpt>
      <trkpt lat="43.5866" lon="3.79351">
        <ele>34.763676</ele>
        <time>2022-08-10T05:39:47Z</time>
      </trkpt>
      <trkpt lat="43.58632" lon="3.79263">
        <ele>34.549072</ele>
        <time>2022-08-10T05:39:57Z</time>
      </trkpt>
      <trkpt lat="43.58614" lon="3.79174">
        <ele>34.150669</ele>
        <time>2022-08-10T05:40:07Z</time>
      </trkpt>
      <trkpt lat="43.58601" lon="3.79082">
        <ele>33.913242</ele>
        <time>2022-08-10T05:40:17Z</time>
      </trkpt>
      <trkpt lat="43.586" lon="3.78996">
        <ele>34.016521</ele>
        <time>2022-08-10T05:40:27Z</time>
      </trkpt>
      <trkpt lat="43.586" lon="3.78918">
        <ele>34.987957</ele>
        <time>2022-08-10T05:40:37Z</time>
      </trkpt>
      <trkpt lat="43.58601" lon="3.78846">
        <ele>36.083172</ele>
        <time>2022-08-10T05:40:47Z</time>
      </trkpt>
      <trkpt lat="43.58596" lon="3.78774">
        <ele>37.23967</ele>
        <time>2022-08-10T05:40:57Z</time>
      </trkpt>
      <trkpt lat="43.58585" lon="3.78706">
        <ele>38.697281</ele>
        <time>2022-08-10T05:41:07Z</time>
      </trkpt>
      <trkpt lat="43.5857" lon="3.78639">
        <ele>40.279129</ele>
        <time>2022-08-10T05:41:17Z</time>
      </trkpt>
      <trkpt lat="43.58555" lon="3.78573">
        <ele>42.194118</ele>
        <time>2022-08-10T05:41:27Z</time>
      </trkpt>
      <trkpt lat="43.58541" lon="3.78512">
        <ele>43.850006</ele>
        <time>2022-08-10T05:41:37Z</time>
      </trkpt>
      <trkpt lat="43.58527" lon="3.78452">
        <ele>44.594803</ele>
        <time>2022-08-10T05:41:47Z</time>
      </trkpt>
      <trkpt lat="43.58513" lon="3.78389">
        <ele>44.19997</ele>
        <time>2022-08-10T05:41:57Z</time>
      </trkpt>
      <trkpt lat="43.585" lon="3.7832">
        <ele>42.942627</ele>
        <time>2022-08-10T05:42:07Z</time>
      </trkpt>
      <trkpt lat="43.58493" lon="3.78249">
        <ele>41.600574</ele>
        <time>2022-08-10T05:42:17Z</time>
      </trkpt>
      <trkpt lat="43.58491" lon="3.78167">
        <ele>41.131653</ele>
        <time>2022-08-10T05:42:27Z</time>
      </trkpt>
      <trkpt lat="43.5849" lon="3.78079">
        <ele>40.300865</ele>
        <time>2022-08-10T05:42:37Z</time>
      </trkpt>
      <trkpt lat="43.58494" lon="3.7799">
        <ele>39.344803</ele>
        <time>2022-08-10T05:42:47Z</time>
      </trkpt>
      <trkpt lat="43.58505" lon="3.77909">
        <ele>37.626492</ele>
        <time>2022-08-10T05:42:57Z</time>
      </trkpt>
      <trkpt lat="43.5848" lon="3.77853">
        <ele>37.15617</ele>
        <time>2022-08-10T05:43:07Z</time>
      </trkpt>
      <trkpt lat="43.58468" lon="3.77792">
        <ele>36.945881</ele>
        <time>2022-08-10T05:43:17Z</time>
      </trkpt>
      <trkpt lat="43.58447" lon="3.77714">
        <ele>36.666424</ele>
        <time>2022-08-10T05:43:27Z</time>
      </trkpt>
      <trkpt lat="43.58416" lon="3.77642">
        <ele>36.323162</ele>
        <time>2022-08-10T05:43:37Z</time>
      </trkpt>
      <trkpt lat="43.58381" lon="3.77572">
        <ele>36.505596</ele>
        <time>2022-08-10T05:43:47Z</time>
      </trkpt>
      <trkpt lat="43.58348" lon="3.77503">
        <ele>36.304852</ele>
        <time>2022-08-10T05:43:57Z</time>
      </trkpt>
      <trkpt lat="43.58313" lon="3.77433">
        <ele>36.002777</ele>
        <time>2022-08-10T05:44:07Z</time>
      </trkpt>
      <trkpt lat="43.58279" lon="3.77363">
        <ele>36.187229</ele>
        <time>2022-08-10T05:44:17Z</time>
      </trkpt>
      <trkpt lat="43.5824" lon="3.77288">
        <ele>36.489906</ele>
        <time>2022-08-10T05:44:27Z</time>
      </trkpt>
      <trkpt lat="43.58205" lon="3.77217">
        <ele>36.305733</ele>
        <time>2022-08-10T05:44:37Z</time>
      </trkpt>
      <trkpt lat="43.58169" lon="3.77147">
        <ele>36.585606</ele>
        <time>2022-08-10T05:44:47Z</time>
      </trkpt>
      <trkpt lat="43.58133" lon="3.77076">
        <ele>36.914539</ele>
        <time>2022-08-10T05:44:57Z</time>
      </trkpt>
      <trkpt lat="43.58098" lon="3.77007">
        <ele>37.878174</ele>
        <time>2022-08-10T05:45:07Z</time>
      </trkpt>
      <trkpt lat="43.58063" lon="3.76937">
        <ele>38.855801</ele>
        <time>2022-08-10T05:45:17Z</time>
      </trkpt>
      <trkpt lat="43.58029" lon="3.76867">
        <ele>38.978294</ele>
        <time>2022-08-10T05:45:27Z</time>
      </trkpt>
      <trkpt lat="43.58021" lon="3.76793">
        <ele>39.607014</ele>
        <time>2022-08-10T05:45:37Z</time>
      </trkpt>
      <trkpt lat="43.57997" lon="3.76748">
        <ele>39.315525</ele>
        <time>2022-08-10T05:45:47Z</time>
      </trkpt>
      <trkpt lat="43.57951" lon="3.76713">
        <ele>38.61499</ele>
        <time>2022-08-10T05:45:57Z</time>
      </trkpt>
      <trkpt lat="43.57919" lon="3.7665">
        <ele>38.06551</ele>
        <time>2022-08-10T05:46:07Z</time>
      </trkpt>
      <trkpt lat="43.57897" lon="3.76585">
        <ele>37.676105</ele>
        <time>2022-08-10T05:46:17Z</time>
      </trkpt>
      <trkpt lat="43.57861" lon="3.76505">
        <ele>37.211914</ele>
        <time>2022-08-10T05:46:27Z</time>
      </trkpt>
      <trkpt lat="43.57836" lon="3.76427">
        <ele>37.042969</ele>
        <time>2022-08-10T05:46:37Z</time>
      </trkpt>
      <trkpt lat="43.57819" lon="3.76348">
        <ele>37.436279</ele>
        <time>2022-08-10T05:46:47Z</time>
      </trkpt>
      <trkpt lat="43.5781" lon="3.76269">
        <ele>37.418858</ele>
        <time>2022-08-10T05:46:57Z</time>
      </trkpt>
      <trkpt lat="43.57808" lon="3.76194">
        <ele>37.918583</ele>
        <time>2022-08-10T05:47:07Z</time>
      </trkpt>
      <trkpt lat="43.57814" lon="3.76124">
        <ele>38.982746</ele>
        <time>2022-08-10T05:47:17Z</time>
      </trkpt>
      <trkpt lat="43.57814" lon="3.76056">
        <ele>39.982262</ele>
        <time>2022-08-10T05:47:27Z</time>
      </trkpt>
      <trkpt lat="43.57824" lon="3.7599">
        <ele>40.560505</ele>
        <time>2022-08-10T05:47:37Z</time>
      </trkpt>
      <trkpt lat="43.57832" lon="3.75925">
        <ele>41.126942</ele>
        <time>2022-08-10T05:47:47Z</time>
      </trkpt>
      <trkpt lat="43.5784" lon="3.7586">
        <ele>42.211102</ele>
        <time>2022-08-10T05:47:57Z</time>
      </trkpt>
      <trkpt lat="43.57847" lon="3.75798">
        <ele>42.825825</ele>
        <time>2022-08-10T05:48:07Z</time>
      </trkpt>
      <trkpt lat="43.57855" lon="3.75734">
        <ele>43.27058</ele>
        <time>2022-08-10T05:48:17Z</time>
      </trkpt>
      <trkpt lat="43.57861" lon="3.75666">
        <ele>44.232914</ele>
        <time>2022-08-10T05:48:27Z</time>
      </trkpt>
      <trkpt lat="43.57864" lon="3.75605">
        <ele>45.057171</ele>
        <time>2022-08-10T05:48:37Z</time>
      </trkpt>
      <trkpt lat="43.57838" lon="3.75541">
        <ele>44.636883</ele>
        <time>2022-08-10T05:48:47Z</time>
      </trkpt>
      <trkpt lat="43.57816" lon="3.75469">
        <ele>44.208973</ele>
        <time>2022-08-10T05:48:57Z</time>
      </trkpt>
      <trkpt lat="43.57789" lon="3.75401">
        <ele>43.536518</ele>
        <time>2022-08-10T05:49:07Z</time>
      </trkpt>
      <trkpt lat="43.57764" lon="3.75334">
        <ele>42.755123</ele>
        <time>2022-08-10T05:49:17Z</time>
      </trkpt>
      <trkpt lat="43.57739" lon="3.75276">
        <ele>42.163204</ele>
        <time>2022-08-10T05:49:27Z</time>
      </trkpt>
      <trkpt lat="43.57767" lon="3.75248">
        <ele>42.441574</ele>
        <time>2022-08-10T05:49:37Z</time>
      </trkpt>
      <trkpt lat="43.57787" lon="3.75191">
        <ele>43.599487</ele>
        <time>2022-08-10T05:49:47Z</time>
      </trkpt>
      <trkpt lat="43.57809" lon="3.75147">
        <ele>44.805115</ele>
        <time>2022-08-10T05:49:57Z</time>
      </trkpt>
      <trkpt lat="43.5781" lon="3.75098">
        <ele>45.211426</ele>
        <time>2022-08-10T05:50:07Z</time>
      </trkpt>
      <trkpt lat="43.57826" lon="3.7505">
        <ele>45.530273</ele>
        <time>2022-08-10T05:50:17Z</time>
      </trkpt>
      <trkpt lat="43.57847" lon="3.75012">
        <ele>46.277523</ele>
        <time>2022-08-10T05:50:27Z</time>
      </trkpt>
      <trkpt lat="43.57848" lon="3.74965">
        <ele>46.682842</ele>
        <time>2022-08-10T05:50:37Z</time>
      </trkpt>
      <trkpt lat="43.57871" lon="3.74921">
        <ele>46.838154</ele>
        <time>2022-08-10T05:50:47Z</time>
      </trkpt>
      <trkpt lat="43.57901" lon="3.74887">
        <ele>47.474689</ele>
        <time>2022-08-10T05:50:57Z</time>
      </trkpt>
      <trkpt lat="43.5793" lon="3.74859">
        <ele>48.93465</ele>
        <time>2022-08-10T05:51:07Z</time>
      </trkpt>
      <trkpt lat="43.57953" lon="3.74835">
        <ele>50.078693</ele>
        <time>2022-08-10T05:51:17Z</time>
      </trkpt>
      <trkpt lat="43.57977" lon="3.74812">
        <ele>51.364746</ele>
        <time>2022-08-10T05:51:27Z</time>
      </trkpt>
      <trkpt lat="43.57998" lon="3.74793">
        <ele>52.385742</ele>
        <time>2022-08-10T05:51:37Z</time>
      </trkpt>
      <trkpt lat="43.58014" lon="3.74771">
        <ele>54.129757</ele>
        <time>2022-08-10T05:51:47Z</time>
      </trkpt>
      <trkpt lat="43.58001" lon="3.74734">
        <ele>55.511959</ele>
        <time>2022-08-10T05:51:57Z</time>
      </trkpt>
      <trkpt lat="43.57977" lon="3.74684">
        <ele>55.766064</ele>
        <time>2022-08-10T05:52:07Z</time>
      </trkpt>
      <trkpt lat="43.57955" lon="3.74636">
        <ele>56.744389</ele>
        <time>2022-08-10T05:52:17Z</time>
      </trkpt>
      <trkpt lat="43.57933" lon="3.74589">
        <ele>57.526276</ele>
        <time>2022-08-10T05:52:27Z</time>
      </trkpt>
      <trkpt lat="43.57923" lon="3.7455">
        <ele>59.714306</ele>
        <time>2022-08-10T05:52:37Z</time>
      </trkpt>
      <trkpt lat="43.57919" lon="3.74523">
        <ele>61.918667</ele>
        <time>2022-08-10T05:52:47Z</time>
      </trkpt>
      <trkpt lat="43.57908" lon="3.74497">
        <ele>62.749264</ele>
        <time>2022-08-10T05:52:57Z</time>
      </trkpt>
      <trkpt lat="43.57895" lon="3.7447">
        <ele>63.405838</ele>
        <time>2022-08-10T05:53:07Z</time>
      </trkpt>
      <trkpt lat="43.57881" lon="3.74442">
        <ele>63.718975</ele>
        <time>2022-08-10T05:53:17Z</time>
      </trkpt>
      <trkpt lat="43.57866" lon="3.74416">
        <ele>63.97102</ele>
        <time>2022-08-10T05:53:27Z</time>
      </trkpt>
      <trkpt lat="43.57835" lon="3.74369">
        <ele>63.368176</ele>
        <time>2022-08-10T05:53:37Z</time>
      </trkpt>
      <trkpt lat="43.57795" lon="3.74292">
        <ele>62.382526</ele>
        <time>2022-08-10T05:53:47Z</time>
      </trkpt>
      <trkpt lat="43.57769" lon="3.74212">
        <ele>61.948254</ele>
        <time>2022-08-10T05:53:57Z</time>
      </trkpt>
      <trkpt lat="43.57768" lon="3.74153">
        <ele>64.59124</ele>
        <time>2022-08-10T05:54:07Z</time>
      </trkpt>
      <trkpt lat="43.57789" lon="3.74101">
        <ele>67.879402</ele>
        <time>2022-08-10T05:54:17Z</time>
      </trkpt>
      <trkpt lat="43.57816" lon="3.7407">
        <ele>69.442879</ele>
        <time>2022-08-10T05:54:27Z</time>
      </trkpt>
      <trkpt lat="43.57843" lon="3.74044">
        <ele>71.908211</ele>
        <time>2022-08-10T05:54:37Z</time>
      </trkpt>
      <trkpt lat="43.57871" lon="3.74027">
        <ele>73.269989</ele>
        <time>2022-08-10T05:54:47Z</time>
      </trkpt>
      <trkpt lat="43.57896" lon="3.74018">
        <ele>60.3</ele>
        <time>2022-08-10T05:54:57Z</time>
      </trkpt>
      <trkpt lat="43.5791" lon="3.74008">
        <ele>62.5</ele>
        <time>2022-08-10T05:55:07Z</time>
      </trkpt>
      <trkpt lat="43.57927" lon="3.73985">
        <ele>64.9</ele>
        <time>2022-08-10T05:55:17Z</time>
      </trkpt>
      <trkpt lat="43.57928" lon="3.73968">
        <ele>66.6</ele>
        <time>2022-08-10T05:55:27Z</time>
      </trkpt>
      <trkpt lat="43.57922" lon="3.7395">
        <ele>68.3</ele>
        <time>2022-08-10T05:55:37Z</time>
      </trkpt>
      <trkpt lat="43.57915" lon="3.73937">
        <ele>69.7</ele>
        <time>2022-08-10T05:55:47Z</time>
      </trkpt>
      <trkpt lat="43.57909" lon="3.73919">
        <ele>78.186333</ele>
        <time>2022-08-10T05:55:57Z</time>
      </trkpt>
      <trkpt lat="43.57902" lon="3.73899">
        <ele>79.82206</ele>
        <time>2022-08-10T05:56:17Z</time>
      </trkpt>
      <trkpt lat="43.57898" lon="3.73879">
        <ele>81.621162</ele>
        <time>2022-08-10T05:56:27Z</time>
      </trkpt>
      <trkpt lat="43.57896" lon="3.7386">
        <ele>83.578346</ele>
        <time>2022-08-10T05:57:07Z</time>
      </trkpt>
      <trkpt lat="43.57892" lon="3.7385">
        <ele>84.327354</ele>
        <time>2022-08-10T05:57:27Z</time>
      </trkpt>
      <trkpt lat="43.57887" lon="3.73843">
        <ele>85.024742</ele>
        <time>2022-08-10T05:57:37Z</time>
      </trkpt>
      <trkpt lat="43.57874" lon="3.73828">
        <ele>86.78051</ele>
        <time>2022-08-10T05:57:47Z</time>
      </trkpt>
      <trkpt lat="43.57862" lon="3.73814">
        <ele>88.842201</ele>
        <time>2022-08-10T05:57:57Z</time>
      </trkpt>
      <trkpt lat="43.57851" lon="3.73805">
        <ele>89.763832</ele>
        <time>2022-08-10T05:58:07Z</time>
      </trkpt>
      <trkpt lat="43.5784" lon="3.73793">
        <ele>89.772606</ele>
        <time>2022-08-10T05:58:17Z</time>
      </trkpt>
      <trkpt lat="43.57827" lon="3.73786">
        <ele>89.854797</ele>
        <time>2022-08-10T05:58:27Z</time>
      </trkpt>
      <trkpt lat="43.57813" lon="3.73778">
        <ele>89.762718</ele>
        <time>2022-08-10T05:58:37Z</time>
      </trkpt>
      <trkpt lat="43.57801" lon="3.73767">
        <ele>89.852539</ele>
        <time>2022-08-10T05:58:47Z</time>
      </trkpt>
      <trkpt lat="43.57792" lon="3.73748">
        <ele>90.284599</ele>
        <time>2022-08-10T05:58:57Z</time>
      </trkpt>
      <trkpt lat="43.57774" lon="3.73729">
        <ele>90.383057</ele>
        <time>2022-08-10T05:59:07Z</time>
      </trkpt>
      <trkpt lat="43.57755" lon="3.73696">
        <ele>90.150879</ele>
        <time>2022-08-10T05:59:17Z</time>
      </trkpt>
      <trkpt lat="43.57764" lon="3.73656">
        <ele>91.623695</ele>
        <time>2022-08-10T05:59:27Z</time>
      </trkpt>
      <trkpt lat="43.57771" lon="3.73622">
        <ele>93.330322</ele>
        <time>2022-08-10T05:59:37Z</time>
      </trkpt>
      <trkpt lat="43.57776" lon="3.73589">
        <ele>95.23867</ele>
        <time>2022-08-10T05:59:47Z</time>
      </trkpt>
      <trkpt lat="43.57779" lon="3.73561">
        <ele>96.201324</ele>
        <time>2022-08-10T05:59:57Z</time>
      </trkpt>
      <trkpt lat="43.57747" lon="3.73518">
        <ele>97.218498</ele>
        <time>2022-08-10T06:00:07Z</time>
      </trkpt>
      <trkpt lat="43.57726" lon="3.73505">
        <ele>97.871422</ele>
        <time>2022-08-10T06:00:17Z</time>
      </trkpt>
      <trkpt lat="43.57699" lon="3.73491">
        <ele>97.445473</ele>
        <time>2022-08-10T06:00:27Z</time>
      </trkpt>
      <trkpt lat="43.57683" lon="3.73462">
        <ele>97.124184</ele>
        <time>2022-08-10T06:00:37Z</time>
      </trkpt>
      <trkpt lat="43.57681" lon="3.7343">
        <ele>97.422859</ele>
        <time>2022-08-10T06:00:47Z</time>
      </trkpt>
      <trkpt lat="43.57693" lon="3.73406">
        <ele>98.296783</ele>
        <time>2022-08-10T06:00:57Z</time>
      </trkpt>
      <trkpt lat="43.57695" lon="3.73378">
        <ele>99.130424</ele>
        <time>2022-08-10T06:01:07Z</time>
      </trkpt>
      <trkpt lat="43.57684" lon="3.73338">
        <ele>99.396324</ele>
        <time>2022-08-10T06:01:17Z</time>
      </trkpt>
      <trkpt lat="43.57693" lon="3.73298">
        <ele>99.769676</ele>
        <time>2022-08-10T06:01:27Z</time>
      </trkpt>
      <trkpt lat="43.57715" lon="3.73262">
        <ele>100.525154</ele>
        <time>2022-08-10T06:01:37Z</time>
      </trkpt>
      <trkpt lat="43.57749" lon="3.73222">
        <ele>100.740883</ele>
        <time>2022-08-10T06:01:47Z</time>
      </trkpt>
      <trkpt lat="43.57787" lon="3.73174">
        <ele>100.997559</ele>
        <time>2022-08-10T06:01:57Z</time>
      </trkpt>
      <trkpt lat="43.57792" lon="3.73126">
        <ele>100.862305</ele>
        <time>2022-08-10T06:02:07Z</time>
      </trkpt>
      <trkpt lat="43.57788" lon="3.73076">
        <ele>98.730469</ele>
        <time>2022-08-10T06:02:17Z</time>
      </trkpt>
      <trkpt lat="43.57777" lon="3.73044">
        <ele>96.908638</ele>
        <time>2022-08-10T06:02:27Z</time>
      </trkpt>
      <trkpt lat="43.57757" lon="3.7301">
        <ele>94.901726</ele>
        <time>2022-08-10T06:02:37Z</time>
      </trkpt>
      <trkpt lat="43.57726" lon="3.72973">
        <ele>92.623619</ele>
        <time>2022-08-10T06:02:47Z</time>
      </trkpt>
      <trkpt lat="43.57699" lon="3.72929">
        <ele>90.403526</ele>
        <time>2022-08-10T06:02:57Z</time>
      </trkpt>
      <trkpt lat="43.57664" lon="3.72896">
        <ele>89.553185</ele>
        <time>2022-08-10T06:03:07Z</time>
      </trkpt>
      <trkpt lat="43.57643" lon="3.72851">
        <ele>88.317619</ele>
        <time>2022-08-10T06:03:17Z</time>
      </trkpt>
      <trkpt lat="43.57631" lon="3.72813">
        <ele>86.001648</ele>
        <time>2022-08-10T06:03:27Z</time>
      </trkpt>
      <trkpt lat="43.57607" lon="3.72786">
        <ele>84.132828</ele>
        <time>2022-08-10T06:03:37Z</time>
      </trkpt>
      <trkpt lat="43.57571" lon="3.72758">
        <ele>82.182045</ele>
        <time>2022-08-10T06:03:47Z</time>
      </trkpt>
      <trkpt lat="43.57539" lon="3.72722">
        <ele>81.611679</ele>
        <time>2022-08-10T06:03:57Z</time>
      </trkpt>
      <trkpt lat="43.57538" lon="3.72671">
        <ele>81.805084</ele>
        <time>2022-08-10T06:04:07Z</time>
      </trkpt>
      <trkpt lat="43.57536" lon="3.72622">
        <ele>82.102203</ele>
        <time>2022-08-10T06:04:17Z</time>
      </trkpt>
      <trkpt lat="43.57518" lon="3.72598">
        <ele>82.918922</ele>
        <time>2022-08-10T06:04:27Z</time>
      </trkpt>
      <trkpt lat="43.57495" lon="3.72564">
        <ele>84.711006</ele>
        <time>2022-08-10T06:04:37Z</time>
      </trkpt>
      <trkpt lat="43.57475" lon="3.72536">
        <ele>86.061394</ele>
        <time>2022-08-10T06:04:47Z</time>
      </trkpt>
      <trkpt lat="43.57453" lon="3.72523">
        <ele>86.820862</ele>
        <time>2022-08-10T06:04:57Z</time>
      </trkpt>
      <trkpt lat="43.57431" lon="3.72502">
        <ele>88.131348</ele>
        <time>2022-08-10T06:05:07Z</time>
      </trkpt>
      <trkpt lat="43.57414" lon="3.72477">
        <ele>89.811974</ele>
        <time>2022-08-10T06:05:17Z</time>
      </trkpt>
      <trkpt lat="43.57397" lon="3.72454">
        <ele>91.348633</ele>
        <time>2022-08-10T06:05:27Z</time>
      </trkpt>
      <trkpt lat="43.57381" lon="3.72429">
        <ele>92.507362</ele>
        <time>2022-08-10T06:05:37Z</time>
      </trkpt>
      <trkpt lat="43.57365" lon="3.72406">
        <ele>94.215691</ele>
        <time>2022-08-10T06:05:47Z</time>
      </trkpt>
      <trkpt lat="43.57349" lon="3.72383">
        <ele>95.914894</ele>
        <time>2022-08-10T06:05:57Z</time>
      </trkpt>
      <trkpt lat="43.57342" lon="3.7236">
        <ele>97.439369</ele>
        <time>2022-08-10T06:06:07Z</time>
      </trkpt>
      <trkpt lat="43.57346" lon="3.72338">
        <ele>97.541908</ele>
        <time>2022-08-10T06:07:07Z</time>
      </trkpt>
      <trkpt lat="43.57341" lon="3.72307">
        <ele>97.948792</ele>
        <time>2022-08-10T06:07:27Z</time>
      </trkpt>
      <trkpt lat="43.57324" lon="3.72273">
        <ele>98.834587</ele>
        <time>2022-08-10T06:07:37Z</time>
      </trkpt>
      <trkpt lat="43.57301" lon="3.72222">
        <ele>99.920708</ele>
        <time>2022-08-10T06:07:47Z</time>
      </trkpt>
      <trkpt lat="43.57277" lon="3.72184">
        <ele>100.392662</ele>
        <time>2022-08-10T06:07:57Z</time>
      </trkpt>
      <trkpt lat="43.57256" lon="3.72164">
        <ele>100.358192</ele>
        <time>2022-08-10T06:08:07Z</time>
      </trkpt>
      <trkpt lat="43.57236" lon="3.72132">
        <ele>99.837379</ele>
        <time>2022-08-10T06:08:17Z</time>
      </trkpt>
      <trkpt lat="43.5721" lon="3.72112">
        <ele>99.359375</ele>
        <time>2022-08-10T06:08:27Z</time>
      </trkpt>
      <trkpt lat="43.57216" lon="3.7207">
        <ele>98.52018</ele>
        <time>2022-08-10T06:08:37Z</time>
      </trkpt>
      <trkpt lat="43.572" lon="3.72018">
        <ele>97.388916</ele>
        <time>2022-08-10T06:08:47Z</time>
      </trkpt>
      <trkpt lat="43.57192" lon="3.71986">
        <ele>95.417732</ele>
        <time>2022-08-10T06:08:57Z</time>
      </trkpt>
      <trkpt lat="43.5716" lon="3.71963">
        <ele>93.991783</ele>
        <time>2022-08-10T06:09:07Z</time>
      </trkpt>
      <trkpt lat="43.57122" lon="3.71924">
        <ele>90.763023</ele>
        <time>2022-08-10T06:09:17Z</time>
      </trkpt>
      <trkpt lat="43.57092" lon="3.71876">
        <ele>86.956665</ele>
        <time>2022-08-10T06:09:27Z</time>
      </trkpt>
      <trkpt lat="43.57066" lon="3.71841">
        <ele>84.045235</ele>
        <time>2022-08-10T06:09:37Z</time>
      </trkpt>
      <trkpt lat="43.57007" lon="3.71834">
        <ele>81.412498</ele>
        <time>2022-08-10T06:09:47Z</time>
      </trkpt>
      <trkpt lat="43.56958" lon="3.71795">
        <ele>81.057953</ele>
        <time>2022-08-10T06:09:57Z</time>
      </trkpt>
      <trkpt lat="43.56919" lon="3.71741">
        <ele>80.911247</ele>
        <time>2022-08-10T06:10:07Z</time>
      </trkpt>
      <trkpt lat="43.56868" lon="3.71718">
        <ele>80.256706</ele>
        <time>2022-08-10T06:10:17Z</time>
      </trkpt>
      <trkpt lat="43.56828" lon="3.71667">
        <ele>79.766838</ele>
        <time>2022-08-10T06:10:27Z</time>
      </trkpt>
      <trkpt lat="43.56789" lon="3.7163">
        <ele>76.828529</ele>
        <time>2022-08-10T06:10:37Z</time>
      </trkpt>
      <trkpt lat="43.56775" lon="3.71602">
        <ele>73.270393</ele>
        <time>2022-08-10T06:10:47Z</time>
      </trkpt>
      <trkpt lat="43.56756" lon="3.71618">
        <ele>73.034698</ele>
        <time>2022-08-10T06:10:57Z</time>
      </trkpt>
      <trkpt lat="43.56725" lon="3.71647">
        <ele>74.298828</ele>
        <time>2022-08-10T06:11:17Z</time>
      </trkpt>
      <trkpt lat="43.56691" lon="3.71646">
        <ele>75.375969</ele>
        <time>2022-08-10T06:11:27Z</time>
      </trkpt>
      <trkpt lat="43.56667" lon="3.71663">
        <ele>75.636292</ele>
        <time>2022-08-10T06:11:37Z</time>
      </trkpt>
      <trkpt lat="43.56652" lon="3.71649">
        <ele>75.603653</ele>
        <time>2022-08-10T06:11:47Z</time>
      </trkpt>
      <trkpt lat="43.56635" lon="3.71622">
        <ele>73.765602</ele>
        <time>2022-08-10T06:11:57Z</time>
      </trkpt>
      <trkpt lat="43.56615" lon="3.7159">
        <ele>72.053322</ele>
        <time>2022-08-10T06:12:07Z</time>
      </trkpt>
      <trkpt lat="43.56587" lon="3.71561">
        <ele>70.995605</ele>
        <time>2022-08-10T06:12:17Z</time>
      </trkpt>
      <trkpt lat="43.56567" lon="3.7154">
        <ele>69.762779</ele>
        <time>2022-08-10T06:12:27Z</time>
      </trkpt>
      <trkpt lat="43.56535" lon="3.71521">
        <ele>68.225006</ele>
        <time>2022-08-10T06:12:37Z</time>
      </trkpt>
      <trkpt lat="43.56515" lon="3.71496">
        <ele>65.991699</ele>
        <time>2022-08-10T06:12:47Z</time>
      </trkpt>
      <trkpt lat="43.56495" lon="3.71473">
        <ele>64.056641</ele>
        <time>2022-08-10T06:12:57Z</time>
      </trkpt>
      <trkpt lat="43.56477" lon="3.71459">
        <ele>62.00301</ele>
        <time>2022-08-10T06:13:07Z</time>
      </trkpt>
      <trkpt lat="43.56456" lon="3.71445">
        <ele>60.513184</ele>
        <time>2022-08-10T06:13:17Z</time>
      </trkpt>
      <trkpt lat="43.56429" lon="3.71431">
        <ele>59.003216</ele>
        <time>2022-08-10T06:13:27Z</time>
      </trkpt>
      <trkpt lat="43.56398" lon="3.7141">
        <ele>57.115173</ele>
        <time>2022-08-10T06:13:37Z</time>
      </trkpt>
      <trkpt lat="43.56362" lon="3.71396">
        <ele>55.454693</ele>
        <time>2022-08-10T06:13:47Z</time>
      </trkpt>
      <trkpt lat="43.56319" lon="3.71395">
        <ele>54.184128</ele>
        <time>2022-08-10T06:13:57Z</time>
      </trkpt>
      <trkpt lat="43.56285" lon="3.71419">
        <ele>52.007504</ele>
        <time>2022-08-10T06:14:07Z</time>
      </trkpt>
      <trkpt lat="43.56257" lon="3.71441">
        <ele>51.037289</ele>
        <time>2022-08-10T06:14:17Z</time>
      </trkpt>
      <trkpt lat="43.56231" lon="3.71464">
        <ele>49.911922</ele>
        <time>2022-08-10T06:14:27Z</time>
      </trkpt>
      <trkpt lat="43.56217" lon="3.71488">
        <ele>48.651764</ele>
        <time>2022-08-10T06:16:37Z</time>
      </trkpt>
      <trkpt lat="43.56207" lon="3.71471">
        <ele>48.219086</ele>
        <time>2022-08-10T06:16:57Z</time>
      </trkpt>
      <trkpt lat="43.56228" lon="3.71426">
        <ele>48.258316</ele>
        <time>2022-08-10T06:17:07Z</time>
      </trkpt>
      <trkpt lat="43.56257" lon="3.71386">
        <ele>49.113979</ele>
        <time>2022-08-10T06:17:17Z</time>
      </trkpt>
      <trkpt lat="43.56277" lon="3.71356">
        <ele>50.425716</ele>
        <time>2022-08-10T06:17:27Z</time>
      </trkpt>
      <trkpt lat="43.56316" lon="3.71341">
        <ele>51.389099</ele>
        <time>2022-08-10T06:17:37Z</time>
      </trkpt>
      <trkpt lat="43.56347" lon="3.71311">
        <ele>53.324097</ele>
        <time>2022-08-10T06:17:47Z</time>
      </trkpt>
      <trkpt lat="43.56375" lon="3.71307">
        <ele>55.571198</ele>
        <time>2022-08-10T06:17:57Z</time>
      </trkpt>
      <trkpt lat="43.564" lon="3.71299">
        <ele>55.210831</ele>
        <time>2022-08-10T06:18:07Z</time>
      </trkpt>
      <trkpt lat="43.56424" lon="3.71291">
        <ele>55.193287</ele>
        <time>2022-08-10T06:18:17Z</time>
      </trkpt>
      <trkpt lat="43.56454" lon="3.71289">
        <ele>54.746647</ele>
        <time>2022-08-10T06:18:27Z</time>
      </trkpt>
      <trkpt lat="43.56486" lon="3.71278">
        <ele>53.698467</ele>
        <time>2022-08-10T06:18:37Z</time>
      </trkpt>
      <trkpt lat="43.56507" lon="3.71257">
        <ele>53.230698</ele>
        <time>2022-08-10T06:18:47Z</time>
      </trkpt>
      <trkpt lat="43.56531" lon="3.71219">
        <ele>54.318851</ele>
        <time>2022-08-10T06:18:57Z</time>
      </trkpt>
      <trkpt lat="43.56546" lon="3.71186">
        <ele>55.819351</ele>
        <time>2022-08-10T06:19:07Z</time>
      </trkpt>
      <trkpt lat="43.56572" lon="3.71151">
        <ele>61.744389</ele>
        <time>2022-08-10T06:20:17Z</time>
      </trkpt>
      <trkpt lat="43.56596" lon="3.71128">
        <ele>65.950981</ele>
        <time>2022-08-10T06:20:37Z</time>
      </trkpt>
      <trkpt lat="43.5663" lon="3.71101">
        <ele>70.048988</ele>
        <time>2022-08-10T06:20:47Z</time>
      </trkpt>
      <trkpt lat="43.56662" lon="3.71069">
        <ele>73.599968</ele>
        <time>2022-08-10T06:20:57Z</time>
      </trkpt>
      <trkpt lat="43.56694" lon="3.71039">
        <ele>73.573601</ele>
        <time>2022-08-10T06:21:07Z</time>
      </trkpt>
      <trkpt lat="43.56727" lon="3.71008">
        <ele>71.827721</ele>
        <time>2022-08-10T06:21:17Z</time>
      </trkpt>
      <trkpt lat="43.5676" lon="3.70977">
        <ele>72.134956</ele>
        <time>2022-08-10T06:21:27Z</time>
      </trkpt>
      <trkpt lat="43.56792" lon="3.70944">
        <ele>74.284813</ele>
        <time>2022-08-10T06:21:37Z</time>
      </trkpt>
      <trkpt lat="43.5682" lon="3.70908">
        <ele>75.142143</ele>
        <time>2022-08-10T06:21:47Z</time>
      </trkpt>
      <trkpt lat="43.56845" lon="3.70872">
        <ele>75.379951</ele>
        <time>2022-08-10T06:21:57Z</time>
      </trkpt>
      <trkpt lat="43.5687" lon="3.7084">
        <ele>75.90435</ele>
        <time>2022-08-10T06:22:07Z</time>
      </trkpt>
      <trkpt lat="43.56901" lon="3.7081">
        <ele>75.82148</ele>
        <time>2022-08-10T06:22:17Z</time>
      </trkpt>
      <trkpt lat="43.56934" lon="3.7079">
        <ele>75.620552</ele>
        <time>2022-08-10T06:22:27Z</time>
      </trkpt>
      <trkpt lat="43.56961" lon="3.70769">
        <ele>74.567802</ele>
        <time>2022-08-10T06:22:37Z</time>
      </trkpt>
      <trkpt lat="43.56982" lon="3.70748">
        <ele>75.526207</ele>
        <time>2022-08-10T06:22:47Z</time>
      </trkpt>
      <trkpt lat="43.56996" lon="3.70731">
        <ele>77.352669</ele>
        <time>2022-08-10T06:22:57Z</time>
      </trkpt>
      <trkpt lat="43.5701" lon="3.70713">
        <ele>79.663292</ele>
        <time>2022-08-10T06:23:07Z</time>
      </trkpt>
      <trkpt lat="43.57027" lon="3.70694">
        <ele>82.129845</ele>
        <time>2022-08-10T06:23:17Z</time>
      </trkpt>
      <trkpt lat="43.57047" lon="3.70679">
        <ele>84.704033</ele>
        <time>2022-08-10T06:23:27Z</time>
      </trkpt>
      <trkpt lat="43.57064" lon="3.70659">
        <ele>86.863304</ele>
        <time>2022-08-10T06:23:37Z</time>
      </trkpt>
      <trkpt lat="43.57071" lon="3.70655">
        <ele>88.079506</ele>
        <time>2022-08-10T06:23:47Z</time>
      </trkpt>
      <trkpt lat="43.57077" lon="3.7065">
        <ele>88.380104</ele>
        <time>2022-08-10T06:23:57Z</time>
      </trkpt>
      <trkpt lat="43.57082" lon="3.70642">
        <ele>87.985443</ele>
        <time>2022-08-10T06:24:07Z</time>
      </trkpt>
      <trkpt lat="43.57087" lon="3.70634">
        <ele>87.685951</ele>
        <time>2022-08-10T06:24:17Z</time>
      </trkpt>
      <trkpt lat="43.57089" lon="3.70622">
        <ele>87.595665</ele>
        <time>2022-08-10T06:24:27Z</time>
      </trkpt>
      <trkpt lat="43.57092" lon="3.70613">
        <ele>87.975426</ele>
        <time>2022-08-10T06:24:37Z</time>
      </trkpt>
      <trkpt lat="43.57096" lon="3.70602">
        <ele>88.227417</ele>
        <time>2022-08-10T06:24:47Z</time>
      </trkpt>
      <trkpt lat="43.57101" lon="3.70592">
        <ele>88.464455</ele>
        <time>2022-08-10T06:24:57Z</time>
      </trkpt>
      <trkpt lat="43.57104" lon="3.70582">
        <ele>88.807709</ele>
        <time>2022-08-10T06:25:07Z</time>
      </trkpt>
      <trkpt lat="43.57106" lon="3.70574">
        <ele>89.225098</ele>
        <time>2022-08-10T06:25:17Z</time>
      </trkpt>
      <trkpt lat="43.57106" lon="3.70566">
        <ele>89.388367</ele>
        <time>2022-08-10T06:25:27Z</time>
      </trkpt>
      <trkpt lat="43.5711" lon="3.70555">
        <ele>89.629204</ele>
        <time>2022-08-10T06:25:37Z</time>
      </trkpt>
      <trkpt lat="43.57114" lon="3.70545">
        <ele>89.945557</ele>
        <time>2022-08-10T06:25:47Z</time>
      </trkpt>
      <trkpt lat="43.57116" lon="3.70536">
        <ele>90.332306</ele>
        <time>2022-08-10T06:25:57Z</time>
      </trkpt>
      <trkpt lat="43.57119" lon="3.70526">
        <ele>90.782524</ele>
        <time>2022-08-10T06:26:07Z</time>
      </trkpt>
      <trkpt lat="43.57123" lon="3.70515">
        <ele>91.352997</ele>
        <time>2022-08-10T06:26:17Z</time>
      </trkpt>
      <trkpt lat="43.57125" lon="3.70504">
        <ele>91.955238</ele>
        <time>2022-08-10T06:26:27Z</time>
      </trkpt>
      <trkpt lat="43.57129" lon="3.70495">
        <ele>92.499084</ele>
        <time>2022-08-10T06:26:37Z</time>
      </trkpt>
      <trkpt lat="43.57132" lon="3.70485">
        <ele>93.030296</ele>
        <time>2022-08-10T06:26:47Z</time>
      </trkpt>
      <trkpt lat="43.57134" lon="3.70476">
        <ele>93.52372</ele>
        <time>2022-08-10T06:26:57Z</time>
      </trkpt>
      <trkpt lat="43.57138" lon="3.70467">
        <ele>94.009033</ele>
        <time>2022-08-10T06:27:07Z</time>
      </trkpt>
      <trkpt lat="43.57142" lon="3.70461">
        <ele>94.526947</ele>
        <time>2022-08-10T06:27:17Z</time>
      </trkpt>
      <trkpt lat="43.57142" lon="3.7045">
        <ele>95.021202</ele>
        <time>2022-08-10T06:27:27Z</time>
      </trkpt>
      <trkpt lat="43.57137" lon="3.70433">
        <ele>95.26236</ele>
        <time>2022-08-10T06:27:37Z</time>
      </trkpt>
      <trkpt lat="43.57131" lon="3.70409">
        <ele>94.949852</ele>
        <time>2022-08-10T06:27:57Z</time>
      </trkpt>
      <trkpt lat="43.57141" lon="3.70377">
        <ele>95.364716</ele>
        <time>2022-08-10T06:28:07Z</time>
      </trkpt>
      <trkpt lat="43.5715" lon="3.70344">
        <ele>95.972404</ele>
        <time>2022-08-10T06:28:17Z</time>
      </trkpt>
      <trkpt lat="43.57162" lon="3.7031">
        <ele>96.11454</ele>
        <time>2022-08-10T06:28:27Z</time>
      </trkpt>
      <trkpt lat="43.57179" lon="3.70283">
        <ele>96.620689</ele>
        <time>2022-08-10T06:28:37Z</time>
      </trkpt>
      <trkpt lat="43.57192" lon="3.70254">
        <ele>97.727791</ele>
        <time>2022-08-10T06:28:47Z</time>
      </trkpt>
      <trkpt lat="43.57204" lon="3.70228">
        <ele>98.925323</ele>
        <time>2022-08-10T06:28:57Z</time>
      </trkpt>
      <trkpt lat="43.57217" lon="3.70202">
        <ele>100.436424</ele>
        <time>2022-08-10T06:29:07Z</time>
      </trkpt>
      <trkpt lat="43.57236" lon="3.70186">
        <ele>102.046692</ele>
        <time>2022-08-10T06:29:17Z</time>
      </trkpt>
      <trkpt lat="43.57255" lon="3.70171">
        <ele>103.829994</ele>
        <time>2022-08-10T06:29:27Z</time>
      </trkpt>
      <trkpt lat="43.57272" lon="3.70147">
        <ele>105.141541</ele>
        <time>2022-08-10T06:29:37Z</time>
      </trkpt>
      <trkpt lat="43.57292" lon="3.70117">
        <ele>106.179237</ele>
        <time>2022-08-10T06:29:47Z</time>
      </trkpt>
      <trkpt lat="43.57333" lon="3.70097">
        <ele>107.511414</ele>
        <time>2022-08-10T06:29:57Z</time>
      </trkpt>
      <trkpt lat="43.5739" lon="3.70066">
        <ele>107.480682</ele>
        <time>2022-08-10T06:30:07Z</time>
      </trkpt>
      <trkpt lat="43.57449" lon="3.7004">
        <ele>107.778954</ele>
        <time>2022-08-10T06:30:17Z</time>
      </trkpt>
      <trkpt lat="43.57512" lon="3.70039">
        <ele>108.647461</ele>
        <time>2022-08-10T06:30:27Z</time>
      </trkpt>
      <trkpt lat="43.5757" lon="3.70005">
        <ele>109.45443</ele>
        <time>2022-08-10T06:30:37Z</time>
      </trkpt>
      <trkpt lat="43.57625" lon="3.69976">
        <ele>111.532372</ele>
        <time>2022-08-10T06:30:47Z</time>
      </trkpt>
      <trkpt lat="43.57668" lon="3.69967">
        <ele>111.939217</ele>
        <time>2022-08-10T06:30:57Z</time>
      </trkpt>
      <trkpt lat="43.577" lon="3.69963">
        <ele>112.061409</ele>
        <time>2022-08-10T06:31:07Z</time>
      </trkpt>
      <trkpt lat="43.57728" lon="3.69965">
        <ele>112.065941</ele>
        <time>2022-08-10T06:31:17Z</time>
      </trkpt>
      <trkpt lat="43.57754" lon="3.69966">
        <ele>112.330627</ele>
        <time>2022-08-10T06:31:27Z</time>
      </trkpt>
      <trkpt lat="43.57782" lon="3.69962">
        <ele>113.157417</ele>
        <time>2022-08-10T06:31:37Z</time>
      </trkpt>
      <trkpt lat="43.57807" lon="3.69952">
        <ele>114.60672</ele>
        <time>2022-08-10T06:31:47Z</time>
      </trkpt>
      <trkpt lat="43.57832" lon="3.6995">
        <ele>116.549438</ele>
        <time>2022-08-10T06:31:57Z</time>
      </trkpt>
      <trkpt lat="43.57856" lon="3.69945">
        <ele>117.902222</ele>
        <time>2022-08-10T06:32:07Z</time>
      </trkpt>
      <trkpt lat="43.57879" lon="3.6993">
        <ele>119.509514</ele>
        <time>2022-08-10T06:32:17Z</time>
      </trkpt>
      <trkpt lat="43.57906" lon="3.69922">
        <ele>121.73172</ele>
        <time>2022-08-10T06:32:27Z</time>
      </trkpt>
      <trkpt lat="43.5793" lon="3.69906">
        <ele>123.580811</ele>
        <time>2022-08-10T06:32:37Z</time>
      </trkpt>
      <trkpt lat="43.57955" lon="3.69882">
        <ele>125.117393</ele>
        <time>2022-08-10T06:32:47Z</time>
      </trkpt>
      <trkpt lat="43.57976" lon="3.69841">
        <ele>126.409393</ele>
        <time>2022-08-10T06:32:57Z</time>
      </trkpt>
      <trkpt lat="43.57998" lon="3.698">
        <ele>127.290558</ele>
        <time>2022-08-10T06:33:07Z</time>
      </trkpt>
      <trkpt lat="43.58038" lon="3.69749">
        <ele>126.400032</ele>
        <time>2022-08-10T06:33:17Z</time>
      </trkpt>
      <trkpt lat="43.58066" lon="3.69728">
        <ele>124.561104</ele>
        <time>2022-08-10T06:33:27Z</time>
      </trkpt>
      <trkpt lat="43.58099" lon="3.69711">
        <ele>123.592079</ele>
        <time>2022-08-10T06:33:37Z</time>
      </trkpt>
      <trkpt lat="43.58145" lon="3.69676">
        <ele>122.729485</ele>
        <time>2022-08-10T06:33:47Z</time>
      </trkpt>
      <trkpt lat="43.58194" lon="3.69652">
        <ele>122.348633</ele>
        <time>2022-08-10T06:33:57Z</time>
      </trkpt>
      <trkpt lat="43.58229" lon="3.69603">
        <ele>123.283287</ele>
        <time>2022-08-10T06:34:07Z</time>
      </trkpt>
      <trkpt lat="43.5825" lon="3.69628">
        <ele>124.264</ele>
        <time>2022-08-10T06:34:17Z</time>
      </trkpt>
      <trkpt lat="43.58274" lon="3.69636">
        <ele>120.768066</ele>
        <time>2022-08-10T06:34:27Z</time>
      </trkpt>
      <trkpt lat="43.58289" lon="3.69665">
        <ele>119.370155</ele>
        <time>2022-08-10T06:34:37Z</time>
      </trkpt>
      <trkpt lat="43.58304" lon="3.69694">
        <ele>117.531647</ele>
        <time>2022-08-10T06:34:47Z</time>
      </trkpt>
      <trkpt lat="43.58309" lon="3.6971">
        <ele>117.520241</ele>
        <time>2022-08-10T06:34:57Z</time>
      </trkpt>
      <trkpt lat="43.58308" lon="3.6973">
        <ele>117.754616</ele>
        <time>2022-08-10T06:35:07Z</time>
      </trkpt>
      <trkpt lat="43.58291" lon="3.69757">
        <ele>116.938454</ele>
        <time>2022-08-10T06:35:17Z</time>
      </trkpt>
      <trkpt lat="43.58267" lon="3.69784">
        <ele>115.405762</ele>
        <time>2022-08-10T06:35:27Z</time>
      </trkpt>
      <trkpt lat="43.58241" lon="3.69809">
        <ele>114.174355</ele>
        <time>2022-08-10T06:35:37Z</time>
      </trkpt>
      <trkpt lat="43.58246" lon="3.69844">
        <ele>113.190849</ele>
        <time>2022-08-10T06:35:47Z</time>
      </trkpt>
      <trkpt lat="43.58258" lon="3.69884">
        <ele>113.75824</ele>
        <time>2022-08-10T06:35:57Z</time>
      </trkpt>
      <trkpt lat="43.5829" lon="3.69895">
        <ele>116.338737</ele>
        <time>2022-08-10T06:36:07Z</time>
      </trkpt>
      <trkpt lat="43.58331" lon="3.69921">
        <ele>118.104431</ele>
        <time>2022-08-10T06:36:17Z</time>
      </trkpt>
      <trkpt lat="43.58358" lon="3.69947">
        <ele>118.897369</ele>
        <time>2022-08-10T06:36:27Z</time>
      </trkpt>
      <trkpt lat="43.58384" lon="3.69963">
        <ele>118.686707</ele>
        <time>2022-08-10T06:36:37Z</time>
      </trkpt>
      <trkpt lat="43.58413" lon="3.6997">
        <ele>118.573952</ele>
        <time>2022-08-10T06:36:47Z</time>
      </trkpt>
      <trkpt lat="43.58439" lon="3.69989">
        <ele>118.453094</ele>
        <time>2022-08-10T06:36:57Z</time>
      </trkpt>
      <trkpt lat="43.58471" lon="3.70009">
        <ele>119.180244</ele>
        <time>2022-08-10T06:37:07Z</time>
      </trkpt>
      <trkpt lat="43.58507" lon="3.70026">
        <ele>120.052788</ele>
        <time>2022-08-10T06:37:17Z</time>
      </trkpt>
      <trkpt lat="43.58543" lon="3.70045">
        <ele>120.151527</ele>
        <time>2022-08-10T06:37:27Z</time>
      </trkpt>
      <trkpt lat="43.58578" lon="3.70037">
        <ele>119.027992</ele>
        <time>2022-08-10T06:37:37Z</time>
      </trkpt>
      <trkpt lat="43.58611" lon="3.70021">
        <ele>114.986351</ele>
        <time>2022-08-10T06:37:47Z</time>
      </trkpt>
      <trkpt lat="43.58643" lon="3.7003">
        <ele>110.301964</ele>
        <time>2022-08-10T06:37:57Z</time>
      </trkpt>
      <trkpt lat="43.5867" lon="3.70018">
        <ele>104.533913</ele>
        <time>2022-08-10T06:38:07Z</time>
      </trkpt>
      <trkpt lat="43.58698" lon="3.70002">
        <ele>100.693993</ele>
        <time>2022-08-10T06:38:17Z</time>
      </trkpt>
      <trkpt lat="43.58723" lon="3.69988">
        <ele>97.599548</ele>
        <time>2022-08-10T06:38:27Z</time>
      </trkpt>
      <trkpt lat="43.58733" lon="3.69978">
        <ele>95.239952</ele>
        <time>2022-08-10T06:38:37Z</time>
      </trkpt>
      <trkpt lat="43.58758" lon="3.69982">
        <ele>93.720276</ele>
        <time>2022-08-10T06:38:57Z</time>
      </trkpt>
      <trkpt lat="43.5878" lon="3.69972">
        <ele>90.63678</ele>
        <time>2022-08-10T06:39:17Z</time>
      </trkpt>
      <trkpt lat="43.58796" lon="3.69963">
        <ele>89.234596</ele>
        <time>2022-08-10T06:40:07Z</time>
      </trkpt>
      <trkpt lat="43.58801" lon="3.69956">
        <ele>89.306335</ele>
        <time>2022-08-10T06:40:27Z</time>
      </trkpt>
      <trkpt lat="43.58811" lon="3.69942">
        <ele>89.157158</ele>
        <time>2022-08-10T06:40:37Z</time>
      </trkpt>
      <trkpt lat="43.58832" lon="3.69948">
        <ele>87.484009</ele>
        <time>2022-08-10T06:41:27Z</time>
      </trkpt>
      <trkpt lat="43.5884" lon="3.69937">
        <ele>88.149345</ele>
        <time>2022-08-10T06:41:47Z</time>
      </trkpt>
      <trkpt lat="43.58846" lon="3.6993">
        <ele>88.517059</ele>
        <time>2022-08-10T06:42:07Z</time>
      </trkpt>
      <trkpt lat="43.58862" lon="3.6991">
        <ele>88.950111</ele>
        <time>2022-08-10T06:42:37Z</time>
      </trkpt>
      <trkpt lat="43.58873" lon="3.69889">
        <ele>88.860069</ele>
        <time>2022-08-10T06:42:57Z</time>
      </trkpt>
      <trkpt lat="43.58885" lon="3.69874">
        <ele>88.445335</ele>
        <time>2022-08-10T06:43:07Z</time>
      </trkpt>
      <trkpt lat="43.58896" lon="3.69856">
        <ele>87.856377</ele>
        <time>2022-08-10T06:43:17Z</time>
      </trkpt>
      <trkpt lat="43.5891" lon="3.69836">
        <ele>86.806908</ele>
        <time>2022-08-10T06:43:27Z</time>
      </trkpt>
      <trkpt lat="43.5893" lon="3.69835">
        <ele>86.04245</ele>
        <time>2022-08-10T06:43:37Z</time>
      </trkpt>
      <trkpt lat="43.58945" lon="3.69847">
        <ele>86.465324</ele>
        <time>2022-08-10T06:43:47Z</time>
      </trkpt>
      <trkpt lat="43.58954" lon="3.6987">
        <ele>87.974648</ele>
        <time>2022-08-10T06:43:57Z</time>
      </trkpt>
      <trkpt lat="43.58958" lon="3.69892">
        <ele>90.855034</ele>
        <time>2022-08-10T06:44:07Z</time>
      </trkpt>
      <trkpt lat="43.58975" lon="3.69893">
        <ele>92.979034</ele>
        <time>2022-08-10T06:44:17Z</time>
      </trkpt>
      <trkpt lat="43.58987" lon="3.69877">
        <ele>92.179909</ele>
        <time>2022-08-10T06:44:27Z</time>
      </trkpt>
      <trkpt lat="43.59002" lon="3.69877">
        <ele>91.347176</ele>
        <time>2022-08-10T06:44:37Z</time>
      </trkpt>
      <trkpt lat="43.59005" lon="3.69895">
        <ele>92.425407</ele>
        <time>2022-08-10T06:44:47Z</time>
      </trkpt>
      <trkpt lat="43.58999" lon="3.69914">
        <ele>95.170738</ele>
        <time>2022-08-10T06:44:57Z</time>
      </trkpt>
      <trkpt lat="43.58998" lon="3.69936">
        <ele>97.975746</ele>
        <time>2022-08-10T06:45:07Z</time>
      </trkpt>
      <trkpt lat="43.59005" lon="3.69953">
        <ele>101.04232</ele>
        <time>2022-08-10T06:45:17Z</time>
      </trkpt>
      <trkpt lat="43.59013" lon="3.69968">
        <ele>103.647949</ele>
        <time>2022-08-10T06:45:27Z</time>
      </trkpt>
      <trkpt lat="43.59024" lon="3.69983">
        <ele>105.248772</ele>
        <time>2022-08-10T06:45:37Z</time>
      </trkpt>
      <trkpt lat="43.59036" lon="3.69998">
        <ele>106.688499</ele>
        <time>2022-08-10T06:45:47Z</time>
      </trkpt>
      <trkpt lat="43.59049" lon="3.70014">
        <ele>107.848732</ele>
        <time>2022-08-10T06:45:57Z</time>
      </trkpt>
      <trkpt lat="43.59066" lon="3.70035">
        <ele>108.938667</ele>
        <time>2022-08-10T06:46:07Z</time>
      </trkpt>
      <trkpt lat="43.59082" lon="3.70055">
        <ele>110.064278</ele>
        <time>2022-08-10T06:46:17Z</time>
      </trkpt>
      <trkpt lat="43.59096" lon="3.70074">
        <ele>111.349342</ele>
        <time>2022-08-10T06:46:27Z</time>
      </trkpt>
      <trkpt lat="43.5911" lon="3.70094">
        <ele>112.412926</ele>
        <time>2022-08-10T06:46:37Z</time>
      </trkpt>
      <trkpt lat="43.59118" lon="3.70117">
        <ele>113.589874</ele>
        <time>2022-08-10T06:46:47Z</time>
      </trkpt>
      <trkpt lat="43.59125" lon="3.70141">
        <ele>115.495819</ele>
        <time>2022-08-10T06:46:57Z</time>
      </trkpt>
      <trkpt lat="43.59134" lon="3.7017">
        <ele>117.822021</ele>
        <time>2022-08-10T06:47:07Z</time>
      </trkpt>
      <trkpt lat="43.59149" lon="3.70194">
        <ele>120.979797</ele>
        <time>2022-08-10T06:47:17Z</time>
      </trkpt>
      <trkpt lat="43.59175" lon="3.70215">
        <ele>123.821655</ele>
        <time>2022-08-10T06:47:27Z</time>
      </trkpt>
      <trkpt lat="43.59205" lon="3.70236">
        <ele>126.846031</ele>
        <time>2022-08-10T06:47:37Z</time>
      </trkpt>
      <trkpt lat="43.59246" lon="3.70245">
        <ele>130.124619</ele>
        <time>2022-08-10T06:47:47Z</time>
      </trkpt>
      <trkpt lat="43.5928" lon="3.70271">
        <ele>128.5849</ele>
        <time>2022-08-10T06:47:57Z</time>
      </trkpt>
      <trkpt lat="43.59313" lon="3.70301">
        <ele>126.208588</ele>
        <time>2022-08-10T06:48:07Z</time>
      </trkpt>
      <trkpt lat="43.59353" lon="3.70319">
        <ele>126.558228</ele>
        <time>2022-08-10T06:48:17Z</time>
      </trkpt>
      <trkpt lat="43.59396" lon="3.70338">
        <ele>128.783493</ele>
        <time>2022-08-10T06:48:27Z</time>
      </trkpt>
      <trkpt lat="43.59441" lon="3.70355">
        <ele>131.879562</ele>
        <time>2022-08-10T06:48:37Z</time>
      </trkpt>
      <trkpt lat="43.59467" lon="3.70393">
        <ele>133.646835</ele>
        <time>2022-08-10T06:48:47Z</time>
      </trkpt>
      <trkpt lat="43.59462" lon="3.70434">
        <ele>134.279968</ele>
        <time>2022-08-10T06:48:57Z</time>
      </trkpt>
      <trkpt lat="43.59457" lon="3.70476">
        <ele>134.45192</ele>
        <time>2022-08-10T06:49:07Z</time>
      </trkpt>
      <trkpt lat="43.59451" lon="3.70534">
        <ele>134.321457</ele>
        <time>2022-08-10T06:49:17Z</time>
      </trkpt>
      <trkpt lat="43.59472" lon="3.70566">
        <ele>133.893967</ele>
        <time>2022-08-10T06:49:27Z</time>
      </trkpt>
      <trkpt lat="43.59499" lon="3.7057">
        <ele>134.424484</ele>
        <time>2022-08-10T06:49:37Z</time>
      </trkpt>
      <trkpt lat="43.59522" lon="3.70582">
        <ele>135.013428</ele>
        <time>2022-08-10T06:49:47Z</time>
      </trkpt>
      <trkpt lat="43.59544" lon="3.70601">
        <ele>137.086456</ele>
        <time>2022-08-10T06:49:57Z</time>
      </trkpt>
      <trkpt lat="43.59563" lon="3.70627">
        <ele>138.952103</ele>
        <time>2022-08-10T06:50:07Z</time>
      </trkpt>
      <trkpt lat="43.59584" lon="3.70655">
        <ele>140.361832</ele>
        <time>2022-08-10T06:50:17Z</time>
      </trkpt>
      <trkpt lat="43.59609" lon="3.70682">
        <ele>142.209381</ele>
        <time>2022-08-10T06:50:27Z</time>
      </trkpt>
      <trkpt lat="43.59631" lon="3.70707">
        <ele>144.085037</ele>
        <time>2022-08-10T06:50:37Z</time>
      </trkpt>
      <trkpt lat="43.59652" lon="3.70732">
        <ele>145.076492</ele>
        <time>2022-08-10T06:50:47Z</time>
      </trkpt>
      <trkpt lat="43.59674" lon="3.7076">
        <ele>145.85881</ele>
        <time>2022-08-10T06:50:57Z</time>
      </trkpt>
      <trkpt lat="43.59696" lon="3.70785">
        <ele>146.44841</ele>
        <time>2022-08-10T06:51:07Z</time>
      </trkpt>
      <trkpt lat="43.59718" lon="3.70808">
        <ele>147.271957</ele>
        <time>2022-08-10T06:51:17Z</time>
      </trkpt>
      <trkpt lat="43.59738" lon="3.70871">
        <ele>145.692154</ele>
        <time>2022-08-10T06:51:27Z</time>
      </trkpt>
      <trkpt lat="43.59782" lon="3.70936">
        <ele>141.03743</ele>
        <time>2022-08-10T06:51:37Z</time>
      </trkpt>
      <trkpt lat="43.59842" lon="3.70976">
        <ele>138.961044</ele>
        <time>2022-08-10T06:51:47Z</time>
      </trkpt>
      <trkpt lat="43.59915" lon="3.70973">
        <ele>137.81044</ele>
        <time>2022-08-10T06:51:57Z</time>
      </trkpt>
      <trkpt lat="43.59975" lon="3.70897">
        <ele>142.269821</ele>
        <time>2022-08-10T06:52:07Z</time>
      </trkpt>
      <trkpt lat="43.59983" lon="3.70839">
        <ele>150.405228</ele>
        <time>2022-08-10T06:52:17Z</time>
      </trkpt>
      <trkpt lat="43.60005" lon="3.70808">
        <ele>154.939468</ele>
        <time>2022-08-10T06:52:27Z</time>
      </trkpt>
      <trkpt lat="43.60023" lon="3.70781">
        <ele>156.500778</ele>
        <time>2022-08-10T06:52:37Z</time>
      </trkpt>
      <trkpt lat="43.60032" lon="3.70754">
        <ele>157.983307</ele>
        <time>2022-08-10T06:52:47Z</time>
      </trkpt>
      <trkpt lat="43.60036" lon="3.70731">
        <ele>159.428482</ele>
        <time>2022-08-10T06:52:57Z</time>
      </trkpt>
      <trkpt lat="43.60041" lon="3.70708">
        <ele>160.654816</ele>
        <time>2022-08-10T06:53:07Z</time>
      </trkpt>
      <trkpt lat="43.60046" lon="3.70682">
        <ele>162.426147</ele>
        <time>2022-08-10T06:53:17Z</time>
      </trkpt>
      <trkpt lat="43.60057" lon="3.7066">
        <ele>164.305115</ele>
        <time>2022-08-10T06:53:27Z</time>
      </trkpt>
      <trkpt lat="43.60065" lon="3.70636">
        <ele>165.246597</ele>
        <time>2022-08-10T06:53:37Z</time>
      </trkpt>
      <trkpt lat="43.6007" lon="3.70615">
        <ele>167.903046</ele>
        <time>2022-08-10T06:53:47Z</time>
      </trkpt>
      <trkpt lat="43.6007" lon="3.70594">
        <ele>169.918167</ele>
        <time>2022-08-10T06:53:57Z</time>
      </trkpt>
      <trkpt lat="43.60072" lon="3.70569">
        <ele>172.410034</ele>
        <time>2022-08-10T06:54:07Z</time>
      </trkpt>
      <trkpt lat="43.60077" lon="3.70548">
        <ele>174.971634</ele>
        <time>2022-08-10T06:54:17Z</time>
      </trkpt>
      <trkpt lat="43.60078" lon="3.70523">
        <ele>177.51564</ele>
        <time>2022-08-10T06:54:27Z</time>
      </trkpt>
      <trkpt lat="43.60078" lon="3.70502">
        <ele>180.396362</ele>
        <time>2022-08-10T06:54:37Z</time>
      </trkpt>
      <trkpt lat="43.60081" lon="3.70483">
        <ele>183.108505</ele>
        <time>2022-08-10T06:54:47Z</time>
      </trkpt>
      <trkpt lat="43.60087" lon="3.70467">
        <ele>184.833481</ele>
        <time>2022-08-10T06:54:57Z</time>
      </trkpt>
      <trkpt lat="43.60097" lon="3.70454">
        <ele>186.093506</ele>
        <time>2022-08-10T06:55:07Z</time>
      </trkpt>
      <trkpt lat="43.60107" lon="3.70437">
        <ele>186.803055</ele>
        <time>2022-08-10T06:55:17Z</time>
      </trkpt>
      <trkpt lat="43.60119" lon="3.70425">
        <ele>187.176071</ele>
        <time>2022-08-10T06:55:27Z</time>
      </trkpt>
      <trkpt lat="43.60136" lon="3.70423">
        <ele>186.926163</ele>
        <time>2022-08-10T06:55:37Z</time>
      </trkpt>
      <trkpt lat="43.60152" lon="3.70427">
        <ele>184.80928</ele>
        <time>2022-08-10T06:55:47Z</time>
      </trkpt>
      <trkpt lat="43.6017" lon="3.70433">
        <ele>182.054672</ele>
        <time>2022-08-10T06:55:57Z</time>
      </trkpt>
      <trkpt lat="43.60184" lon="3.70436">
        <ele>179.638565</ele>
        <time>2022-08-10T06:56:07Z</time>
      </trkpt>
      <trkpt lat="43.60195" lon="3.70436">
        <ele>178.153275</ele>
        <time>2022-08-10T06:56:17Z</time>
      </trkpt>
      <trkpt lat="43.60209" lon="3.70433">
        <ele>177.560608</ele>
        <time>2022-08-10T06:56:27Z</time>
      </trkpt>
      <trkpt lat="43.60223" lon="3.7043">
        <ele>179.110519</ele>
        <time>2022-08-10T06:56:37Z</time>
      </trkpt>
      <trkpt lat="43.60236" lon="3.70429">
        <ele>180.268936</ele>
        <time>2022-08-10T06:56:47Z</time>
      </trkpt>
      <trkpt lat="43.60251" lon="3.7043">
        <ele>181.519455</ele>
        <time>2022-08-10T06:56:57Z</time>
      </trkpt>
      <trkpt lat="43.60264" lon="3.70434">
        <ele>182.355164</ele>
        <time>2022-08-10T06:57:07Z</time>
      </trkpt>
      <trkpt lat="43.60276" lon="3.70449">
        <ele>182.756042</ele>
        <time>2022-08-10T06:57:17Z</time>
      </trkpt>
      <trkpt lat="43.6028" lon="3.70463">
        <ele>182.521057</ele>
        <time>2022-08-10T06:57:27Z</time>
      </trkpt>
      <trkpt lat="43.60293" lon="3.70462">
        <ele>182.960098</ele>
        <time>2022-08-10T06:57:37Z</time>
      </trkpt>
      <trkpt lat="43.60306" lon="3.70463">
        <ele>185.088928</ele>
        <time>2022-08-10T06:57:47Z</time>
      </trkpt>
      <trkpt lat="43.60318" lon="3.70463">
        <ele>186.466125</ele>
        <time>2022-08-10T06:57:57Z</time>
      </trkpt>
      <trkpt lat="43.60327" lon="3.70454">
        <ele>188.154068</ele>
        <time>2022-08-10T06:58:07Z</time>
      </trkpt>
      <trkpt lat="43.60334" lon="3.70435">
        <ele>189.855026</ele>
        <time>2022-08-10T06:58:17Z</time>
      </trkpt>
      <trkpt lat="43.60345" lon="3.7042">
        <ele>191.724487</ele>
        <time>2022-08-10T06:58:27Z</time>
      </trkpt>
      <trkpt lat="43.60354" lon="3.70406">
        <ele>192.499435</ele>
        <time>2022-08-10T06:58:37Z</time>
      </trkpt>
      <trkpt lat="43.60342" lon="3.70386">
        <ele>193.093796</ele>
        <time>2022-08-10T06:58:47Z</time>
      </trkpt>
      <trkpt lat="43.60328" lon="3.70374">
        <ele>193.668564</ele>
        <time>2022-08-10T06:58:57Z</time>
      </trkpt>
      <trkpt lat="43.60316" lon="3.7036">
        <ele>193.133163</ele>
        <time>2022-08-10T06:59:07Z</time>
      </trkpt>
      <trkpt lat="43.60301" lon="3.70356">
        <ele>192.672913</ele>
        <time>2022-08-10T06:59:17Z</time>
      </trkpt>
      <trkpt lat="43.60287" lon="3.70352">
        <ele>191.823776</ele>
        <time>2022-08-10T06:59:27Z</time>
      </trkpt>
      <trkpt lat="43.60275" lon="3.70349">
        <ele>191.220154</ele>
        <time>2022-08-10T06:59:37Z</time>
      </trkpt>
      <trkpt lat="43.60262" lon="3.70344">
        <ele>190.73558</ele>
        <time>2022-08-10T06:59:47Z</time>
      </trkpt>
      <trkpt lat="43.60251" lon="3.70339">
        <ele>190.609375</ele>
        <time>2022-08-10T06:59:57Z</time>
      </trkpt>
      <trkpt lat="43.60238" lon="3.7033">
        <ele>190.899673</ele>
        <time>2022-08-10T07:00:07Z</time>
      </trkpt>
      <trkpt lat="43.60227" lon="3.70318">
        <ele>191.616394</ele>
        <time>2022-08-10T07:00:17Z</time>
      </trkpt>
      <trkpt lat="43.60212" lon="3.70308">
        <ele>192.595993</ele>
        <time>2022-08-10T07:00:27Z</time>
      </trkpt>
      <trkpt lat="43.60197" lon="3.70289">
        <ele>193.534668</ele>
        <time>2022-08-10T07:00:37Z</time>
      </trkpt>
      <trkpt lat="43.60185" lon="3.70268">
        <ele>196.358231</ele>
        <time>2022-08-10T07:00:47Z</time>
      </trkpt>
      <trkpt lat="43.60165" lon="3.70234">
        <ele>200.546494</ele>
        <time>2022-08-10T07:00:57Z</time>
      </trkpt>
      <trkpt lat="43.60151" lon="3.70201">
        <ele>203.020096</ele>
        <time>2022-08-10T07:01:07Z</time>
      </trkpt>
      <trkpt lat="43.60136" lon="3.70165">
        <ele>203.869385</ele>
        <time>2022-08-10T07:01:17Z</time>
      </trkpt>
      <trkpt lat="43.60135" lon="3.70129">
        <ele>203.368332</ele>
        <time>2022-08-10T07:01:27Z</time>
      </trkpt>
      <trkpt lat="43.60157" lon="3.70123">
        <ele>201.385086</ele>
        <time>2022-08-10T07:01:37Z</time>
      </trkpt>
      <trkpt lat="43.60169" lon="3.70093">
        <ele>198.820969</ele>
        <time>2022-08-10T07:01:47Z</time>
      </trkpt>
      <trkpt lat="43.60185" lon="3.70059">
        <ele>194.378662</ele>
        <time>2022-08-10T07:01:57Z</time>
      </trkpt>
      <trkpt lat="43.60214" lon="3.7002">
        <ele>187.566391</ele>
        <time>2022-08-10T07:02:07Z</time>
      </trkpt>
      <trkpt lat="43.60228" lon="3.69984">
        <ele>180.856216</ele>
        <time>2022-08-10T07:02:17Z</time>
      </trkpt>
      <trkpt lat="43.60235" lon="3.69948">
        <ele>177.173996</ele>
        <time>2022-08-10T07:02:27Z</time>
      </trkpt>
      <trkpt lat="43.60225" lon="3.69903">
        <ele>173.734055</ele>
        <time>2022-08-10T07:02:37Z</time>
      </trkpt>
      <trkpt lat="43.60201" lon="3.69866">
        <ele>170.227051</ele>
        <time>2022-08-10T07:02:47Z</time>
      </trkpt>
      <trkpt lat="43.60178" lon="3.69844">
        <ele>168.723557</ele>
        <time>2022-08-10T07:02:57Z</time>
      </trkpt>
      <trkpt lat="43.60179" lon="3.69823">
        <ele>167.175171</ele>
        <time>2022-08-10T07:03:07Z</time>
      </trkpt>
      <trkpt lat="43.60187" lon="3.69826">
        <ele>167.452225</ele>
        <time>2022-08-10T07:03:17Z</time>
      </trkpt>
      <trkpt lat="43.60198" lon="3.69829">
        <ele>167.726974</ele>
        <time>2022-08-10T07:03:27Z</time>
      </trkpt>
      <trkpt lat="43.60209" lon="3.69833">
        <ele>168.252609</ele>
        <time>2022-08-10T07:03:37Z</time>
      </trkpt>
      <trkpt lat="43.60217" lon="3.69844">
        <ele>169.1754</ele>
        <time>2022-08-10T07:03:47Z</time>
      </trkpt>
      <trkpt lat="43.6023" lon="3.69852">
        <ele>170.033859</ele>
        <time>2022-08-10T07:03:57Z</time>
      </trkpt>
      <trkpt lat="43.60244" lon="3.69855">
        <ele>170.853806</ele>
        <time>2022-08-10T07:04:07Z</time>
      </trkpt>
      <trkpt lat="43.60255" lon="3.69858">
        <ele>171.57637</ele>
        <time>2022-08-10T07:04:17Z</time>
      </trkpt>
      <trkpt lat="43.60266" lon="3.69867">
        <ele>172.099976</ele>
        <time>2022-08-10T07:04:27Z</time>
      </trkpt>
      <trkpt lat="43.60276" lon="3.69873">
        <ele>172.459167</ele>
        <time>2022-08-10T07:04:37Z</time>
      </trkpt>
      <trkpt lat="43.60288" lon="3.69878">
        <ele>172.600754</ele>
        <time>2022-08-10T07:04:47Z</time>
      </trkpt>
      <trkpt lat="43.60299" lon="3.69873">
        <ele>172.843094</ele>
        <time>2022-08-10T07:04:57Z</time>
      </trkpt>
      <trkpt lat="43.60305" lon="3.6986">
        <ele>173.348404</ele>
        <time>2022-08-10T07:05:07Z</time>
      </trkpt>
      <trkpt lat="43.60317" lon="3.69852">
        <ele>173.90361</ele>
        <time>2022-08-10T07:05:17Z</time>
      </trkpt>
      <trkpt lat="43.60323" lon="3.69836">
        <ele>174.62294</ele>
        <time>2022-08-10T07:05:27Z</time>
      </trkpt>
      <trkpt lat="43.60332" lon="3.69819">
        <ele>175.594971</ele>
        <time>2022-08-10T07:05:37Z</time>
      </trkpt>
      <trkpt lat="43.60351" lon="3.69812">
        <ele>176.933151</ele>
        <time>2022-08-10T07:05:47Z</time>
      </trkpt>
      <trkpt lat="43.6037" lon="3.69795">
        <ele>175.967224</ele>
        <time>2022-08-10T07:05:57Z</time>
      </trkpt>
      <trkpt lat="43.60387" lon="3.69783">
        <ele>175.554993</ele>
        <time>2022-08-10T07:06:07Z</time>
      </trkpt>
      <trkpt lat="43.60404" lon="3.69779">
        <ele>173.106873</ele>
        <time>2022-08-10T07:06:17Z</time>
      </trkpt>
      <trkpt lat="43.60424" lon="3.6977">
        <ele>170.490616</ele>
        <time>2022-08-10T07:06:27Z</time>
      </trkpt>
      <trkpt lat="43.60449" lon="3.69757">
        <ele>165.916428</ele>
        <time>2022-08-10T07:06:37Z</time>
      </trkpt>
      <trkpt lat="43.60474" lon="3.69743">
        <ele>160.424835</ele>
        <time>2022-08-10T07:06:47Z</time>
      </trkpt>
      <trkpt lat="43.6049" lon="3.69717">
        <ele>154.38884</ele>
        <time>2022-08-10T07:06:57Z</time>
      </trkpt>
      <trkpt lat="43.60501" lon="3.69681">
        <ele>149.622971</ele>
        <time>2022-08-10T07:07:07Z</time>
      </trkpt>
      <trkpt lat="43.60518" lon="3.6966">
        <ele>145.268509</ele>
        <time>2022-08-10T07:07:17Z</time>
      </trkpt>
      <trkpt lat="43.60527" lon="3.69643">
        <ele>142.561172</ele>
        <time>2022-08-10T07:07:27Z</time>
      </trkpt>
      <trkpt lat="43.60542" lon="3.69629">
        <ele>140.44603</ele>
        <time>2022-08-10T07:07:37Z</time>
      </trkpt>
      <trkpt lat="43.60553" lon="3.69622">
        <ele>138.964966</ele>
        <time>2022-08-10T07:07:47Z</time>
      </trkpt>
      <trkpt lat="43.60565" lon="3.69593">
        <ele>138.380692</ele>
        <time>2022-08-10T07:08:07Z</time>
      </trkpt>
      <trkpt lat="43.60579" lon="3.69592">
        <ele>138.397659</ele>
        <time>2022-08-10T07:08:27Z</time>
      </trkpt>
      <trkpt lat="43.60593" lon="3.69583">
        <ele>138.718781</ele>
        <time>2022-08-10T07:08:37Z</time>
      </trkpt>
      <trkpt lat="43.60625" lon="3.69554">
        <ele>133.7</ele>
      </trkpt>
      <trkpt lat="43.60652" lon="3.69588">
        <ele>143.792587</ele>
        <time>2022-08-10T07:11:47Z</time>
      </trkpt>
      <trkpt lat="43.60675" lon="3.69608">
        <ele>144.18454</ele>
        <time>2022-08-10T07:12:07Z</time>
      </trkpt>
      <trkpt lat="43.60698" lon="3.69646">
        <ele>143.054199</ele>
        <time>2022-08-10T07:12:27Z</time>
      </trkpt>
      <trkpt lat="43.60701" lon="3.69683">
        <ele>138.051224</ele>
        <time>2022-08-10T07:12:37Z</time>
      </trkpt>
      <trkpt lat="43.60711" lon="3.69701">
        <ele>134.751831</ele>
        <time>2022-08-10T07:12:47Z</time>
      </trkpt>
      <trkpt lat="43.60719" lon="3.69711">
        <ele>134.920105</ele>
        <time>2022-08-10T07:13:27Z</time>
      </trkpt>
      <trkpt lat="43.60745" lon="3.69721">
        <ele>136.02916</ele>
        <time>2022-08-10T07:14:07Z</time>
      </trkpt>
      <trkpt lat="43.60762" lon="3.69718">
        <ele>137.383026</ele>
        <time>2022-08-10T07:14:27Z</time>
      </trkpt>
      <trkpt lat="43.60775" lon="3.69711">
        <ele>140.080826</ele>
        <time>2022-08-10T07:14:37Z</time>
      </trkpt>
      <trkpt lat="43.60784" lon="3.69707">
        <ele>142.324387</ele>
        <time>2022-08-10T07:14:47Z</time>
      </trkpt>
      <trkpt lat="43.60796" lon="3.69702">
        <ele>144.124222</ele>
        <time>2022-08-10T07:14:57Z</time>
      </trkpt>
      <trkpt lat="43.60807" lon="3.69697">
        <ele>146.663193</ele>
        <time>2022-08-10T07:15:07Z</time>
      </trkpt>
      <trkpt lat="43.60819" lon="3.69694">
        <ele>149.008072</ele>
        <time>2022-08-10T07:15:17Z</time>
      </trkpt>
      <trkpt lat="43.60828" lon="3.69689">
        <ele>151.006668</ele>
        <time>2022-08-10T07:15:27Z</time>
      </trkpt>
      <trkpt lat="43.60837" lon="3.69685">
        <ele>153.108109</ele>
        <time>2022-08-10T07:15:37Z</time>
      </trkpt>
      <trkpt lat="43.60847" lon="3.69682">
        <ele>155.468109</ele>
        <time>2022-08-10T07:15:47Z</time>
      </trkpt>
      <trkpt lat="43.60858" lon="3.69685">
        <ele>157.323898</ele>
        <time>2022-08-10T07:15:57Z</time>
      </trkpt>
      <trkpt lat="43.60869" lon="3.69684">
        <ele>159.205826</ele>
        <time>2022-08-10T07:16:07Z</time>
      </trkpt>
      <trkpt lat="43.60879" lon="3.69681">
        <ele>161.48494</ele>
        <time>2022-08-10T07:16:17Z</time>
      </trkpt>
      <trkpt lat="43.60891" lon="3.69683">
        <ele>163.221008</ele>
        <time>2022-08-10T07:16:27Z</time>
      </trkpt>
      <trkpt lat="43.60901" lon="3.69679">
        <ele>163.744812</ele>
        <time>2022-08-10T07:16:37Z</time>
      </trkpt>
      <trkpt lat="43.60913" lon="3.69682">
        <ele>163.680573</ele>
        <time>2022-08-10T07:16:47Z</time>
      </trkpt>
      <trkpt lat="43.60926" lon="3.69685">
        <ele>162.858749</ele>
        <time>2022-08-10T07:16:57Z</time>
      </trkpt>
      <trkpt lat="43.60946" lon="3.69681">
        <ele>162.80043</ele>
        <time>2022-08-10T07:17:17Z</time>
      </trkpt>
      <trkpt lat="43.6097" lon="3.69693">
        <ele>162.171021</ele>
        <time>2022-08-10T07:17:27Z</time>
      </trkpt>
      <trkpt lat="43.60994" lon="3.69701">
        <ele>160.41954</ele>
        <time>2022-08-10T07:17:37Z</time>
      </trkpt>
      <trkpt lat="43.61013" lon="3.69685">
        <ele>158.637222</ele>
        <time>2022-08-10T07:17:47Z</time>
      </trkpt>
      <trkpt lat="43.61029" lon="3.69659">
        <ele>157.982101</ele>
        <time>2022-08-10T07:17:57Z</time>
      </trkpt>
      <trkpt lat="43.61042" lon="3.69628">
        <ele>157.935211</ele>
        <time>2022-08-10T07:18:07Z</time>
      </trkpt>
      <trkpt lat="43.6106" lon="3.69608">
        <ele>157.488113</ele>
        <time>2022-08-10T07:18:17Z</time>
      </trkpt>
      <trkpt lat="43.61071" lon="3.69638">
        <ele>155.701096</ele>
        <time>2022-08-10T07:18:27Z</time>
      </trkpt>
      <trkpt lat="43.61069" lon="3.6967">
        <ele>154.420914</ele>
        <time>2022-08-10T07:18:37Z</time>
      </trkpt>
      <trkpt lat="43.61066" lon="3.69701">
        <ele>154.005234</ele>
        <time>2022-08-10T07:18:47Z</time>
      </trkpt>
      <trkpt lat="43.61062" lon="3.6973">
        <ele>155.061935</ele>
        <time>2022-08-10T07:18:57Z</time>
      </trkpt>
      <trkpt lat="43.61057" lon="3.69755">
        <ele>156.590897</ele>
        <time>2022-08-10T07:19:07Z</time>
      </trkpt>
      <trkpt lat="43.6105" lon="3.69776">
        <ele>157.902176</ele>
        <time>2022-08-10T07:19:17Z</time>
      </trkpt>
      <trkpt lat="43.61044" lon="3.698">
        <ele>159.666901</ele>
        <time>2022-08-10T07:19:27Z</time>
      </trkpt>
      <trkpt lat="43.61041" lon="3.69824">
        <ele>161.4496</ele>
        <time>2022-08-10T07:19:37Z</time>
      </trkpt>
      <trkpt lat="43.61041" lon="3.69849">
        <ele>162.740372</ele>
        <time>2022-08-10T07:19:47Z</time>
      </trkpt>
      <trkpt lat="43.61041" lon="3.69874">
        <ele>164.005447</ele>
        <time>2022-08-10T07:19:57Z</time>
      </trkpt>
      <trkpt lat="43.61046" lon="3.69899">
        <ele>164.96637</ele>
        <time>2022-08-10T07:20:07Z</time>
      </trkpt>
      <trkpt lat="43.6105" lon="3.69925">
        <ele>166.148804</ele>
        <time>2022-08-10T07:20:17Z</time>
      </trkpt>
      <trkpt lat="43.61054" lon="3.6995">
        <ele>167.475372</ele>
        <time>2022-08-10T07:20:27Z</time>
      </trkpt>
      <trkpt lat="43.61057" lon="3.69974">
        <ele>169.018372</ele>
        <time>2022-08-10T07:20:37Z</time>
      </trkpt>
      <trkpt lat="43.6106" lon="3.69997">
        <ele>170.662323</ele>
        <time>2022-08-10T07:20:47Z</time>
      </trkpt>
      <trkpt lat="43.61064" lon="3.7002">
        <ele>172.410446</ele>
        <time>2022-08-10T07:20:57Z</time>
      </trkpt>
      <trkpt lat="43.61068" lon="3.70043">
        <ele>174.158951</ele>
        <time>2022-08-10T07:21:07Z</time>
      </trkpt>
      <trkpt lat="43.61073" lon="3.70068">
        <ele>175.525894</ele>
        <time>2022-08-10T07:21:17Z</time>
      </trkpt>
      <trkpt lat="43.61081" lon="3.70092">
        <ele>176.656128</ele>
        <time>2022-08-10T07:21:27Z</time>
      </trkpt>
      <trkpt lat="43.61086" lon="3.70117">
        <ele>177.420212</ele>
        <time>2022-08-10T07:21:37Z</time>
      </trkpt>
      <trkpt lat="43.61091" lon="3.70141">
        <ele>178.370743</ele>
        <time>2022-08-10T07:21:47Z</time>
      </trkpt>
      <trkpt lat="43.61095" lon="3.70166">
        <ele>179.422684</ele>
        <time>2022-08-10T07:21:57Z</time>
      </trkpt>
      <trkpt lat="43.611" lon="3.7019">
        <ele>180.385025</ele>
        <time>2022-08-10T07:22:07Z</time>
      </trkpt>
      <trkpt lat="43.61103" lon="3.70215">
        <ele>181.39653</ele>
        <time>2022-08-10T07:22:17Z</time>
      </trkpt>
      <trkpt lat="43.61109" lon="3.7024">
        <ele>182.228592</ele>
        <time>2022-08-10T07:22:27Z</time>
      </trkpt>
      <trkpt lat="43.61113" lon="3.70261">
        <ele>182.667862</ele>
        <time>2022-08-10T07:22:37Z</time>
      </trkpt>
      <trkpt lat="43.61118" lon="3.70278">
        <ele>182.82428</ele>
        <time>2022-08-10T07:22:47Z</time>
      </trkpt>
      <trkpt lat="43.61124" lon="3.70297">
        <ele>182.735733</ele>
        <time>2022-08-10T07:22:57Z</time>
      </trkpt>
      <trkpt lat="43.61137" lon="3.70312">
        <ele>182.21521</ele>
        <time>2022-08-10T07:23:07Z</time>
      </trkpt>
      <trkpt lat="43.61146" lon="3.70332">
        <ele>181.10614</ele>
        <time>2022-08-10T07:23:17Z</time>
      </trkpt>
      <trkpt lat="43.61154" lon="3.70351">
        <ele>181.016037</ele>
        <time>2022-08-10T07:23:27Z</time>
      </trkpt>
      <trkpt lat="43.61165" lon="3.70368">
        <ele>181.104431</ele>
        <time>2022-08-10T07:23:37Z</time>
      </trkpt>
      <trkpt lat="43.61181" lon="3.70387">
        <ele>181.42659</ele>
        <time>2022-08-10T07:23:47Z</time>
      </trkpt>
      <trkpt lat="43.612" lon="3.70411">
        <ele>181.90654</ele>
        <time>2022-08-10T07:23:57Z</time>
      </trkpt>
      <trkpt lat="43.6122" lon="3.7044">
        <ele>182.345871</ele>
        <time>2022-08-10T07:24:07Z</time>
      </trkpt>
      <trkpt lat="43.61234" lon="3.70475">
        <ele>183.338928</ele>
        <time>2022-08-10T07:24:17Z</time>
      </trkpt>
      <trkpt lat="43.61247" lon="3.70505">
        <ele>184.335922</ele>
        <time>2022-08-10T07:24:27Z</time>
      </trkpt>
      <trkpt lat="43.61257" lon="3.70533">
        <ele>185.618637</ele>
        <time>2022-08-10T07:24:37Z</time>
      </trkpt>
      <trkpt lat="43.61261" lon="3.7056">
        <ele>187.234787</ele>
        <time>2022-08-10T07:24:47Z</time>
      </trkpt>
      <trkpt lat="43.61268" lon="3.70586">
        <ele>188.73674</ele>
        <time>2022-08-10T07:24:57Z</time>
      </trkpt>
      <trkpt lat="43.61279" lon="3.70611">
        <ele>190.093887</ele>
        <time>2022-08-10T07:25:07Z</time>
      </trkpt>
      <trkpt lat="43.61287" lon="3.70639">
        <ele>191.422302</ele>
        <time>2022-08-10T07:25:17Z</time>
      </trkpt>
      <trkpt lat="43.61296" lon="3.70667">
        <ele>192.530746</ele>
        <time>2022-08-10T07:25:27Z</time>
      </trkpt>
      <trkpt lat="43.61307" lon="3.70699">
        <ele>192.244934</ele>
        <time>2022-08-10T07:25:37Z</time>
      </trkpt>
      <trkpt lat="43.6132" lon="3.70744">
        <ele>191.520584</ele>
        <time>2022-08-10T07:25:47Z</time>
      </trkpt>
      <trkpt lat="43.61346" lon="3.70819">
        <ele>189.473526</ele>
        <time>2022-08-10T07:25:57Z</time>
      </trkpt>
      <trkpt lat="43.61353" lon="3.70914">
        <ele>185.371414</ele>
        <time>2022-08-10T07:26:07Z</time>
      </trkpt>
      <trkpt lat="43.61352" lon="3.70967">
        <ele>181.994949</ele>
        <time>2022-08-10T07:26:17Z</time>
      </trkpt>
      <trkpt lat="43.61345" lon="3.70992">
        <ele>181.974197</ele>
        <time>2022-08-10T07:26:27Z</time>
      </trkpt>
      <trkpt lat="43.6131" lon="3.70991">
        <ele>180.343857</ele>
        <time>2022-08-10T07:26:37Z</time>
      </trkpt>
      <trkpt lat="43.61282" lon="3.70979">
        <ele>177.924728</ele>
        <time>2022-08-10T07:26:47Z</time>
      </trkpt>
      <trkpt lat="43.61224" lon="3.70965">
        <ele>175.685135</ele>
        <time>2022-08-10T07:26:57Z</time>
      </trkpt>
      <trkpt lat="43.61139" lon="3.70968">
        <ele>171.578018</ele>
        <time>2022-08-10T07:27:07Z</time>
      </trkpt>
      <trkpt lat="43.61044" lon="3.70942">
        <ele>169.481766</ele>
        <time>2022-08-10T07:27:17Z</time>
      </trkpt>
      <trkpt lat="43.60959" lon="3.70942">
        <ele>168.39209</ele>
        <time>2022-08-10T07:27:27Z</time>
      </trkpt>
      <trkpt lat="43.60891" lon="3.7098">
        <ele>169.108292</ele>
        <time>2022-08-10T07:27:37Z</time>
      </trkpt>
      <trkpt lat="43.60869" lon="3.7101">
        <ele>168.541977</ele>
        <time>2022-08-10T07:27:47Z</time>
      </trkpt>
      <trkpt lat="43.60855" lon="3.71035">
        <ele>167.758469</ele>
        <time>2022-08-10T07:27:57Z</time>
      </trkpt>
      <trkpt lat="43.60848" lon="3.71065">
        <ele>167.266846</ele>
        <time>2022-08-10T07:28:07Z</time>
      </trkpt>
      <trkpt lat="43.60847" lon="3.71102">
        <ele>167.998215</ele>
        <time>2022-08-10T07:28:17Z</time>
      </trkpt>
      <trkpt lat="43.60846" lon="3.71146">
        <ele>169.644547</ele>
        <time>2022-08-10T07:28:27Z</time>
      </trkpt>
      <trkpt lat="43.60845" lon="3.71195">
        <ele>171.634232</ele>
        <time>2022-08-10T07:28:37Z</time>
      </trkpt>
      <trkpt lat="43.60851" lon="3.71239">
        <ele>172.990845</ele>
        <time>2022-08-10T07:28:47Z</time>
      </trkpt>
      <trkpt lat="43.60854" lon="3.71281">
        <ele>173</ele>
        <time>2022-08-10T07:28:57Z</time>
      </trkpt>
      <trkpt lat="43.6085" lon="3.71326">
        <ele>172.060547</ele>
        <time>2022-08-10T07:29:07Z</time>
      </trkpt>
      <trkpt lat="43.60846" lon="3.71365">
        <ele>170.864136</ele>
        <time>2022-08-10T07:29:17Z</time>
      </trkpt>
      <trkpt lat="43.60844" lon="3.71402">
        <ele>170.009079</ele>
        <time>2022-08-10T07:29:27Z</time>
      </trkpt>
      <trkpt lat="43.60844" lon="3.71441">
        <ele>169.199051</ele>
        <time>2022-08-10T07:29:37Z</time>
      </trkpt>
      <trkpt lat="43.60849" lon="3.71481">
        <ele>168.655838</ele>
        <time>2022-08-10T07:29:47Z</time>
      </trkpt>
      <trkpt lat="43.60857" lon="3.71523">
        <ele>169.168198</ele>
        <time>2022-08-10T07:29:57Z</time>
      </trkpt>
      <trkpt lat="43.60862" lon="3.71579">
        <ele>170.194275</ele>
        <time>2022-08-10T07:30:07Z</time>
      </trkpt>
      <trkpt lat="43.60864" lon="3.71629">
        <ele>171.565918</ele>
        <time>2022-08-10T07:30:17Z</time>
      </trkpt>
      <trkpt lat="43.60861" lon="3.71677">
        <ele>172.160843</ele>
        <time>2022-08-10T07:30:27Z</time>
      </trkpt>
      <trkpt lat="43.60841" lon="3.71705">
        <ele>173.323563</ele>
        <time>2022-08-10T07:30:37Z</time>
      </trkpt>
      <trkpt lat="43.60808" lon="3.71712">
        <ele>176.701782</ele>
        <time>2022-08-10T07:30:47Z</time>
      </trkpt>
      <trkpt lat="43.60781" lon="3.71713">
        <ele>181.029495</ele>
        <time>2022-08-10T07:30:57Z</time>
      </trkpt>
      <trkpt lat="43.60756" lon="3.71713">
        <ele>185.877579</ele>
        <time>2022-08-10T07:31:07Z</time>
      </trkpt>
      <trkpt lat="43.60753" lon="3.71695">
        <ele>188.989151</ele>
        <time>2022-08-10T07:31:47Z</time>
      </trkpt>
      <trkpt lat="43.60759" lon="3.71655">
        <ele>187.679459</ele>
        <time>2022-08-10T07:32:07Z</time>
      </trkpt>
      <trkpt lat="43.60764" lon="3.71601">
        <ele>186.925125</ele>
        <time>2022-08-10T07:32:17Z</time>
      </trkpt>
      <trkpt lat="43.60771" lon="3.71566">
        <ele>182.792496</ele>
        <time>2022-08-10T07:32:27Z</time>
      </trkpt>
      <trkpt lat="43.60783" lon="3.71532">
        <ele>178.502441</ele>
        <time>2022-08-10T07:32:37Z</time>
      </trkpt>
      <trkpt lat="43.60773" lon="3.71493">
        <ele>174.61235</ele>
        <time>2022-08-10T07:32:47Z</time>
      </trkpt>
      <trkpt lat="43.60746" lon="3.71474">
        <ele>173.96199</ele>
        <time>2022-08-10T07:32:57Z</time>
      </trkpt>
      <trkpt lat="43.60724" lon="3.71464">
        <ele>176.895432</ele>
        <time>2022-08-10T07:33:07Z</time>
      </trkpt>
      <trkpt lat="43.60707" lon="3.71448">
        <ele>178.983444</ele>
        <time>2022-08-10T07:33:17Z</time>
      </trkpt>
      <trkpt lat="43.60694" lon="3.71429">
        <ele>180.1922</ele>
        <time>2022-08-10T07:33:27Z</time>
      </trkpt>
      <trkpt lat="43.60683" lon="3.71421">
        <ele>180.233536</ele>
        <time>2022-08-10T07:33:37Z</time>
      </trkpt>
      <trkpt lat="43.60685" lon="3.71443">
        <ele>181.25853</ele>
        <time>2022-08-10T07:33:47Z</time>
      </trkpt>
      <trkpt lat="43.60689" lon="3.71462">
        <ele>182.467972</ele>
        <time>2022-08-10T07:33:57Z</time>
      </trkpt>
      <trkpt lat="43.60695" lon="3.7148">
        <ele>183.054947</ele>
        <time>2022-08-10T07:34:07Z</time>
      </trkpt>
      <trkpt lat="43.60699" lon="3.71498">
        <ele>184.144958</ele>
        <time>2022-08-10T07:34:17Z</time>
      </trkpt>
      <trkpt lat="43.60703" lon="3.71514">
        <ele>185.554321</ele>
        <time>2022-08-10T07:34:27Z</time>
      </trkpt>
      <trkpt lat="43.60707" lon="3.7153">
        <ele>186.737076</ele>
        <time>2022-08-10T07:34:37Z</time>
      </trkpt>
      <trkpt lat="43.60711" lon="3.71546">
        <ele>188.152084</ele>
        <time>2022-08-10T07:34:47Z</time>
      </trkpt>
      <trkpt lat="43.60713" lon="3.71564">
        <ele>189.359314</ele>
        <time>2022-08-10T07:34:57Z</time>
      </trkpt>
      <trkpt lat="43.60714" lon="3.71584">
        <ele>191.198288</ele>
        <time>2022-08-10T07:35:07Z</time>
      </trkpt>
      <trkpt lat="43.60712" lon="3.71606">
        <ele>193.580399</ele>
        <time>2022-08-10T07:35:17Z</time>
      </trkpt>
      <trkpt lat="43.60708" lon="3.71629">
        <ele>196.021286</ele>
        <time>2022-08-10T07:35:27Z</time>
      </trkpt>
      <trkpt lat="43.60697" lon="3.71646">
        <ele>197.251953</ele>
        <time>2022-08-10T07:35:37Z</time>
      </trkpt>
      <trkpt lat="43.60683" lon="3.71658">
        <ele>199.836502</ele>
        <time>2022-08-10T07:35:47Z</time>
      </trkpt>
      <trkpt lat="43.60666" lon="3.71666">
        <ele>202.641525</ele>
        <time>2022-08-10T07:35:57Z</time>
      </trkpt>
      <trkpt lat="43.60649" lon="3.71672">
        <ele>205.461792</ele>
        <time>2022-08-10T07:36:07Z</time>
      </trkpt>
      <trkpt lat="43.60631" lon="3.71681">
        <ele>208.070816</ele>
        <time>2022-08-10T07:36:17Z</time>
      </trkpt>
      <trkpt lat="43.60615" lon="3.717">
        <ele>210.626846</ele>
        <time>2022-08-10T07:36:27Z</time>
      </trkpt>
      <trkpt lat="43.60616" lon="3.71731">
        <ele>210.696854</ele>
        <time>2022-08-10T07:36:37Z</time>
      </trkpt>
      <trkpt lat="43.60627" lon="3.71754">
        <ele>207.237366</ele>
        <time>2022-08-10T07:36:47Z</time>
      </trkpt>
      <trkpt lat="43.60638" lon="3.71777">
        <ele>205.214859</ele>
        <time>2022-08-10T07:36:57Z</time>
      </trkpt>
      <trkpt lat="43.60649" lon="3.718">
        <ele>203.700821</ele>
        <time>2022-08-10T07:37:07Z</time>
      </trkpt>
      <trkpt lat="43.60655" lon="3.71819">
        <ele>203.179016</ele>
        <time>2022-08-10T07:37:17Z</time>
      </trkpt>
      <trkpt lat="43.60647" lon="3.71828">
        <ele>203.116013</ele>
        <time>2022-08-10T07:37:27Z</time>
      </trkpt>
      <trkpt lat="43.60631" lon="3.71821">
        <ele>203.570175</ele>
        <time>2022-08-10T07:37:37Z</time>
      </trkpt>
      <trkpt lat="43.60618" lon="3.71825">
        <ele>204.352615</ele>
        <time>2022-08-10T07:37:47Z</time>
      </trkpt>
      <trkpt lat="43.60598" lon="3.71821">
        <ele>205.012466</ele>
        <time>2022-08-10T07:37:57Z</time>
      </trkpt>
      <trkpt lat="43.6058" lon="3.71818">
        <ele>207.432327</ele>
        <time>2022-08-10T07:38:07Z</time>
      </trkpt>
      <trkpt lat="43.60562" lon="3.71812">
        <ele>209.755081</ele>
        <time>2022-08-10T07:38:17Z</time>
      </trkpt>
      <trkpt lat="43.60547" lon="3.718">
        <ele>212.086792</ele>
        <time>2022-08-10T07:38:27Z</time>
      </trkpt>
      <trkpt lat="43.60533" lon="3.71792">
        <ele>214.691971</ele>
        <time>2022-08-10T07:38:37Z</time>
      </trkpt>
      <trkpt lat="43.60519" lon="3.71787">
        <ele>216.657883</ele>
        <time>2022-08-10T07:38:47Z</time>
      </trkpt>
      <trkpt lat="43.60506" lon="3.71778">
        <ele>218.585449</ele>
        <time>2022-08-10T07:38:57Z</time>
      </trkpt>
      <trkpt lat="43.6049" lon="3.71775">
        <ele>220.344803</ele>
        <time>2022-08-10T07:39:07Z</time>
      </trkpt>
      <trkpt lat="43.60476" lon="3.71771">
        <ele>222.302414</ele>
        <time>2022-08-10T07:39:17Z</time>
      </trkpt>
      <trkpt lat="43.60463" lon="3.71772">
        <ele>223.315445</ele>
        <time>2022-08-10T07:39:27Z</time>
      </trkpt>
      <trkpt lat="43.6045" lon="3.71772">
        <ele>222.752731</ele>
        <time>2022-08-10T07:39:37Z</time>
      </trkpt>
      <trkpt lat="43.60439" lon="3.71773">
        <ele>222.311401</ele>
        <time>2022-08-10T07:39:47Z</time>
      </trkpt>
      <trkpt lat="43.60427" lon="3.71783">
        <ele>221.714432</ele>
        <time>2022-08-10T07:39:57Z</time>
      </trkpt>
      <trkpt lat="43.60412" lon="3.71799">
        <ele>220.799805</ele>
        <time>2022-08-10T07:40:07Z</time>
      </trkpt>
      <trkpt lat="43.60394" lon="3.71828">
        <ele>220.041855</ele>
        <time>2022-08-10T07:40:17Z</time>
      </trkpt>
      <trkpt lat="43.60375" lon="3.71855">
        <ele>219.411667</ele>
        <time>2022-08-10T07:40:27Z</time>
      </trkpt>
      <trkpt lat="43.60359" lon="3.7188">
        <ele>219.953049</ele>
        <time>2022-08-10T07:40:37Z</time>
      </trkpt>
      <trkpt lat="43.60342" lon="3.71905">
        <ele>221.564987</ele>
        <time>2022-08-10T07:40:47Z</time>
      </trkpt>
      <trkpt lat="43.60326" lon="3.71928">
        <ele>223.812515</ele>
        <time>2022-08-10T07:40:57Z</time>
      </trkpt>
      <trkpt lat="43.6031" lon="3.71952">
        <ele>224.902344</ele>
        <time>2022-08-10T07:41:07Z</time>
      </trkpt>
      <trkpt lat="43.60295" lon="3.71976">
        <ele>226.486755</ele>
        <time>2022-08-10T07:41:17Z</time>
      </trkpt>
      <trkpt lat="43.6028" lon="3.72002">
        <ele>227.85524</ele>
        <time>2022-08-10T07:41:27Z</time>
      </trkpt>
      <trkpt lat="43.60264" lon="3.72031">
        <ele>230.071121</ele>
        <time>2022-08-10T07:41:37Z</time>
      </trkpt>
      <trkpt lat="43.60251" lon="3.72015">
        <ele>230.021408</ele>
        <time>2022-08-10T07:46:07Z</time>
      </trkpt>
      <trkpt lat="43.60217" lon="3.72009">
        <ele>227.826126</ele>
        <time>2022-08-10T07:46:27Z</time>
      </trkpt>
      <trkpt lat="43.60166" lon="3.72024">
        <ele>227.218872</ele>
        <time>2022-08-10T07:46:37Z</time>
      </trkpt>
      <trkpt lat="43.60136" lon="3.72061">
        <ele>225.645508</ele>
        <time>2022-08-10T07:46:47Z</time>
      </trkpt>
      <trkpt lat="43.60114" lon="3.72105">
        <ele>220.362534</ele>
        <time>2022-08-10T07:46:57Z</time>
      </trkpt>
      <trkpt lat="43.60093" lon="3.72146">
        <ele>211.261795</ele>
        <time>2022-08-10T07:47:07Z</time>
      </trkpt>
      <trkpt lat="43.60075" lon="3.72182">
        <ele>203.521683</ele>
        <time>2022-08-10T07:47:17Z</time>
      </trkpt>
      <trkpt lat="43.60054" lon="3.72217">
        <ele>195.779602</ele>
        <time>2022-08-10T07:47:27Z</time>
      </trkpt>
      <trkpt lat="43.60035" lon="3.72263">
        <ele>188.294968</ele>
        <time>2022-08-10T07:47:37Z</time>
      </trkpt>
      <trkpt lat="43.60032" lon="3.72317">
        <ele>180.52034</ele>
        <time>2022-08-10T07:47:47Z</time>
      </trkpt>
      <trkpt lat="43.60028" lon="3.72369">
        <ele>172.648926</ele>
        <time>2022-08-10T07:47:57Z</time>
      </trkpt>
      <trkpt lat="43.60019" lon="3.72419">
        <ele>166.136246</ele>
        <time>2022-08-10T07:48:07Z</time>
      </trkpt>
      <trkpt lat="43.60006" lon="3.72472">
        <ele>158.564209</ele>
        <time>2022-08-10T07:48:17Z</time>
      </trkpt>
      <trkpt lat="43.5999" lon="3.72513">
        <ele>154.156998</ele>
        <time>2022-08-10T07:48:27Z</time>
      </trkpt>
      <trkpt lat="43.59967" lon="3.72561">
        <ele>150.064438</ele>
        <time>2022-08-10T07:48:37Z</time>
      </trkpt>
      <trkpt lat="43.5993" lon="3.72591">
        <ele>146.967606</ele>
        <time>2022-08-10T07:48:47Z</time>
      </trkpt>
      <trkpt lat="43.59903" lon="3.72607">
        <ele>145.005859</ele>
        <time>2022-08-10T07:48:57Z</time>
      </trkpt>
      <trkpt lat="43.59867" lon="3.7258">
        <ele>145.316238</ele>
        <time>2022-08-10T07:49:07Z</time>
      </trkpt>
      <trkpt lat="43.59843" lon="3.72543">
        <ele>146.356644</ele>
        <time>2022-08-10T07:49:17Z</time>
      </trkpt>
      <trkpt lat="43.5983" lon="3.72517">
        <ele>147.689499</ele>
        <time>2022-08-10T07:49:27Z</time>
      </trkpt>
      <trkpt lat="43.59815" lon="3.72492">
        <ele>148.945343</ele>
        <time>2022-08-10T07:49:37Z</time>
      </trkpt>
      <trkpt lat="43.59798" lon="3.72472">
        <ele>150.046127</ele>
        <time>2022-08-10T07:49:47Z</time>
      </trkpt>
      <trkpt lat="43.59784" lon="3.72455">
        <ele>151.071243</ele>
        <time>2022-08-10T07:49:57Z</time>
      </trkpt>
      <trkpt lat="43.59771" lon="3.72441">
        <ele>151.937012</ele>
        <time>2022-08-10T07:50:07Z</time>
      </trkpt>
      <trkpt lat="43.59759" lon="3.72425">
        <ele>152.644211</ele>
        <time>2022-08-10T07:50:17Z</time>
      </trkpt>
      <trkpt lat="43.59749" lon="3.72406">
        <ele>153.403992</ele>
        <time>2022-08-10T07:50:27Z</time>
      </trkpt>
      <trkpt lat="43.59743" lon="3.72385">
        <ele>153.995682</ele>
        <time>2022-08-10T07:50:37Z</time>
      </trkpt>
      <trkpt lat="43.59737" lon="3.72363">
        <ele>154.503052</ele>
        <time>2022-08-10T07:50:47Z</time>
      </trkpt>
      <trkpt lat="43.59733" lon="3.72338">
        <ele>155.037567</ele>
        <time>2022-08-10T07:50:57Z</time>
      </trkpt>
      <trkpt lat="43.5973" lon="3.72311">
        <ele>155.531677</ele>
        <time>2022-08-10T07:51:07Z</time>
      </trkpt>
      <trkpt lat="43.59726" lon="3.72283">
        <ele>156.012238</ele>
        <time>2022-08-10T07:51:17Z</time>
      </trkpt>
      <trkpt lat="43.59723" lon="3.72254">
        <ele>156.45903</ele>
        <time>2022-08-10T07:51:27Z</time>
      </trkpt>
      <trkpt lat="43.59723" lon="3.72222">
        <ele>156.868759</ele>
        <time>2022-08-10T07:51:37Z</time>
      </trkpt>
      <trkpt lat="43.59722" lon="3.7219">
        <ele>157.771042</ele>
        <time>2022-08-10T07:51:47Z</time>
      </trkpt>
      <trkpt lat="43.59719" lon="3.72163">
        <ele>158.544876</ele>
        <time>2022-08-10T07:51:57Z</time>
      </trkpt>
      <trkpt lat="43.59716" lon="3.7214">
        <ele>159.543442</ele>
        <time>2022-08-10T07:52:07Z</time>
      </trkpt>
      <trkpt lat="43.59718" lon="3.72118">
        <ele>160.833237</ele>
        <time>2022-08-10T07:52:17Z</time>
      </trkpt>
      <trkpt lat="43.59723" lon="3.72094">
        <ele>162.253189</ele>
        <time>2022-08-10T07:52:27Z</time>
      </trkpt>
      <trkpt lat="43.59722" lon="3.72071">
        <ele>164.093704</ele>
        <time>2022-08-10T07:52:37Z</time>
      </trkpt>
      <trkpt lat="43.59717" lon="3.72048">
        <ele>165.540146</ele>
        <time>2022-08-10T07:52:47Z</time>
      </trkpt>
      <trkpt lat="43.59716" lon="3.72027">
        <ele>166.871658</ele>
        <time>2022-08-10T07:52:57Z</time>
      </trkpt>
      <trkpt lat="43.59719" lon="3.72008">
        <ele>168.300949</ele>
        <time>2022-08-10T07:53:07Z</time>
      </trkpt>
      <trkpt lat="43.59721" lon="3.7199">
        <ele>169.546494</ele>
        <time>2022-08-10T07:53:17Z</time>
      </trkpt>
      <trkpt lat="43.59724" lon="3.71972">
        <ele>170.915543</ele>
        <time>2022-08-10T07:53:27Z</time>
      </trkpt>
      <trkpt lat="43.59726" lon="3.71955">
        <ele>172.287582</ele>
        <time>2022-08-10T07:53:37Z</time>
      </trkpt>
      <trkpt lat="43.59726" lon="3.71939">
        <ele>173.175613</ele>
        <time>2022-08-10T07:53:47Z</time>
      </trkpt>
      <trkpt lat="43.59727" lon="3.71922">
        <ele>173.676102</ele>
        <time>2022-08-10T07:53:57Z</time>
      </trkpt>
      <trkpt lat="43.59728" lon="3.71906">
        <ele>174.185379</ele>
        <time>2022-08-10T07:54:07Z</time>
      </trkpt>
      <trkpt lat="43.59733" lon="3.71887">
        <ele>175.005051</ele>
        <time>2022-08-10T07:54:17Z</time>
      </trkpt>
      <trkpt lat="43.59738" lon="3.7187">
        <ele>175.75267</ele>
        <time>2022-08-10T07:54:27Z</time>
      </trkpt>
      <trkpt lat="43.59745" lon="3.71852">
        <ele>176.143387</ele>
        <time>2022-08-10T07:54:37Z</time>
      </trkpt>
      <trkpt lat="43.59753" lon="3.71832">
        <ele>176.80127</ele>
        <time>2022-08-10T07:54:47Z</time>
      </trkpt>
      <trkpt lat="43.59762" lon="3.71813">
        <ele>177.727432</ele>
        <time>2022-08-10T07:54:57Z</time>
      </trkpt>
      <trkpt lat="43.5977" lon="3.71795">
        <ele>178.607162</ele>
        <time>2022-08-10T07:55:07Z</time>
      </trkpt>
      <trkpt lat="43.59777" lon="3.71777">
        <ele>179.372421</ele>
        <time>2022-08-10T07:55:17Z</time>
      </trkpt>
      <trkpt lat="43.59782" lon="3.7176">
        <ele>179.925491</ele>
        <time>2022-08-10T07:55:27Z</time>
      </trkpt>
      <trkpt lat="43.59788" lon="3.71742">
        <ele>180.451981</ele>
        <time>2022-08-10T07:55:37Z</time>
      </trkpt>
      <trkpt lat="43.59794" lon="3.71724">
        <ele>180.458008</ele>
        <time>2022-08-10T07:55:47Z</time>
      </trkpt>
      <trkpt lat="43.59802" lon="3.71705">
        <ele>180.147141</ele>
        <time>2022-08-10T07:55:57Z</time>
      </trkpt>
      <trkpt lat="43.59791" lon="3.71697">
        <ele>179.203781</ele>
        <time>2022-08-10T07:56:17Z</time>
      </trkpt>
      <trkpt lat="43.59765" lon="3.71697">
        <ele>176.671219</ele>
        <time>2022-08-10T07:56:37Z</time>
      </trkpt>
      <trkpt lat="43.59737" lon="3.717">
        <ele>171.924805</ele>
        <time>2022-08-10T07:56:47Z</time>
      </trkpt>
      <trkpt lat="43.59711" lon="3.71703">
        <ele>167.329636</ele>
        <time>2022-08-10T07:56:57Z</time>
      </trkpt>
      <trkpt lat="43.59691" lon="3.71704">
        <ele>163.327866</ele>
        <time>2022-08-10T07:57:07Z</time>
      </trkpt>
      <trkpt lat="43.59661" lon="3.71709">
        <ele>160.176346</ele>
        <time>2022-08-10T07:57:37Z</time>
      </trkpt>
      <trkpt lat="43.59632" lon="3.71713">
        <ele>156.181427</ele>
        <time>2022-08-10T07:57:57Z</time>
      </trkpt>
      <trkpt lat="43.59603" lon="3.71716">
        <ele>154.835251</ele>
        <time>2022-08-10T07:58:07Z</time>
      </trkpt>
      <trkpt lat="43.5957" lon="3.7172">
        <ele>153.416336</ele>
        <time>2022-08-10T07:58:17Z</time>
      </trkpt>
      <trkpt lat="43.59531" lon="3.71724">
        <ele>152.727188</ele>
        <time>2022-08-10T07:58:27Z</time>
      </trkpt>
      <trkpt lat="43.59485" lon="3.71729">
        <ele>152.014679</ele>
        <time>2022-08-10T07:58:37Z</time>
      </trkpt>
      <trkpt lat="43.59455" lon="3.71734">
        <ele>151.534607</ele>
        <time>2022-08-10T07:58:47Z</time>
      </trkpt>
      <trkpt lat="43.59432" lon="3.71737">
        <ele>151.136673</ele>
        <time>2022-08-10T07:58:57Z</time>
      </trkpt>
      <trkpt lat="43.5941" lon="3.71738">
        <ele>149.729935</ele>
        <time>2022-08-10T07:59:07Z</time>
      </trkpt>
      <trkpt lat="43.59393" lon="3.71724">
        <ele>148.576691</ele>
        <time>2022-08-10T07:59:17Z</time>
      </trkpt>
      <trkpt lat="43.59376" lon="3.71711">
        <ele>148.518463</ele>
        <time>2022-08-10T07:59:27Z</time>
      </trkpt>
      <trkpt lat="43.59358" lon="3.71715">
        <ele>147.669022</ele>
        <time>2022-08-10T07:59:37Z</time>
      </trkpt>
      <trkpt lat="43.59332" lon="3.71706">
        <ele>146.983078</ele>
        <time>2022-08-10T07:59:47Z</time>
      </trkpt>
      <trkpt lat="43.59303" lon="3.71688">
        <ele>146.52327</ele>
        <time>2022-08-10T07:59:57Z</time>
      </trkpt>
      <trkpt lat="43.59265" lon="3.71659">
        <ele>145.131668</ele>
        <time>2022-08-10T08:00:07Z</time>
      </trkpt>
      <trkpt lat="43.59226" lon="3.7162">
        <ele>143.326065</ele>
        <time>2022-08-10T08:00:17Z</time>
      </trkpt>
      <trkpt lat="43.59193" lon="3.7158">
        <ele>141.545303</ele>
        <time>2022-08-10T08:00:27Z</time>
      </trkpt>
      <trkpt lat="43.59169" lon="3.71535">
        <ele>140.94838</ele>
        <time>2022-08-10T08:00:37Z</time>
      </trkpt>
      <trkpt lat="43.59146" lon="3.71487">
        <ele>141.80983</ele>
        <time>2022-08-10T08:00:47Z</time>
      </trkpt>
      <trkpt lat="43.59114" lon="3.71443">
        <ele>142.182968</ele>
        <time>2022-08-10T08:00:57Z</time>
      </trkpt>
      <trkpt lat="43.59084" lon="3.71395">
        <ele>140.98259</ele>
        <time>2022-08-10T08:01:07Z</time>
      </trkpt>
      <trkpt lat="43.59062" lon="3.71332">
        <ele>140.871094</ele>
        <time>2022-08-10T08:01:17Z</time>
      </trkpt>
      <trkpt lat="43.59037" lon="3.71278">
        <ele>140.707275</ele>
        <time>2022-08-10T08:01:27Z</time>
      </trkpt>
      <trkpt lat="43.59018" lon="3.71224">
        <ele>141.021835</ele>
        <time>2022-08-10T08:01:37Z</time>
      </trkpt>
      <trkpt lat="43.59001" lon="3.71176">
        <ele>141.345322</ele>
        <time>2022-08-10T08:01:47Z</time>
      </trkpt>
      <trkpt lat="43.58963" lon="3.7114">
        <ele>140.282578</ele>
        <time>2022-08-10T08:01:57Z</time>
      </trkpt>
      <trkpt lat="43.58901" lon="3.71128">
        <ele>138.803818</ele>
        <time>2022-08-10T08:02:07Z</time>
      </trkpt>
      <trkpt lat="43.58888" lon="3.71118">
        <ele>135.638931</ele>
        <time>2022-08-10T08:02:17Z</time>
      </trkpt>
      <trkpt lat="43.58877" lon="3.71115">
        <ele>135.245773</ele>
        <time>2022-08-10T08:02:37Z</time>
      </trkpt>
      <trkpt lat="43.58852" lon="3.7113">
        <ele>133.764847</ele>
        <time>2022-08-10T08:02:57Z</time>
      </trkpt>
      <trkpt lat="43.58812" lon="3.71145">
        <ele>129.808273</ele>
        <time>2022-08-10T08:03:07Z</time>
      </trkpt>
      <trkpt lat="43.58761" lon="3.71164">
        <ele>125.251793</ele>
        <time>2022-08-10T08:03:17Z</time>
      </trkpt>
      <trkpt lat="43.58709" lon="3.71191">
        <ele>120.450775</ele>
        <time>2022-08-10T08:03:27Z</time>
      </trkpt>
      <trkpt lat="43.58647" lon="3.71214">
        <ele>116.89399</ele>
        <time>2022-08-10T08:03:37Z</time>
      </trkpt>
      <trkpt lat="43.58592" lon="3.71229">
        <ele>115.334038</ele>
        <time>2022-08-10T08:03:47Z</time>
      </trkpt>
      <trkpt lat="43.58569" lon="3.71236">
        <ele>114.54306</ele>
        <time>2022-08-10T08:03:57Z</time>
      </trkpt>
      <trkpt lat="43.58525" lon="3.71248">
        <ele>113.927795</ele>
        <time>2022-08-10T08:04:17Z</time>
      </trkpt>
      <trkpt lat="43.58482" lon="3.71288">
        <ele>111.623901</ele>
        <time>2022-08-10T08:04:27Z</time>
      </trkpt>
      <trkpt lat="43.58478" lon="3.71364">
        <ele>109.272301</ele>
        <time>2022-08-10T08:04:37Z</time>
      </trkpt>
      <trkpt lat="43.58475" lon="3.71442">
        <ele>109.62661</ele>
        <time>2022-08-10T08:04:47Z</time>
      </trkpt>
      <trkpt lat="43.58474" lon="3.71525">
        <ele>110.487427</ele>
        <time>2022-08-10T08:04:57Z</time>
      </trkpt>
      <trkpt lat="43.58474" lon="3.71594">
        <ele>109.860443</ele>
        <time>2022-08-10T08:05:07Z</time>
      </trkpt>
      <trkpt lat="43.58473" lon="3.71661">
        <ele>109.768883</ele>
        <time>2022-08-10T08:05:17Z</time>
      </trkpt>
      <trkpt lat="43.58466" lon="3.71707">
        <ele>109.846626</ele>
        <time>2022-08-10T08:05:27Z</time>
      </trkpt>
      <trkpt lat="43.5847" lon="3.71749">
        <ele>109.923759</ele>
        <time>2022-08-10T08:12:27Z</time>
      </trkpt>
      <trkpt lat="43.58469" lon="3.71803">
        <ele>110.060997</ele>
        <time>2022-08-10T08:12:47Z</time>
      </trkpt>
      <trkpt lat="43.58468" lon="3.7185">
        <ele>110.256897</ele>
        <time>2022-08-10T08:12:57Z</time>
      </trkpt>
      <trkpt lat="43.58468" lon="3.71895">
        <ele>110.963463</ele>
        <time>2022-08-10T08:13:07Z</time>
      </trkpt>
      <trkpt lat="43.58471" lon="3.7194">
        <ele>112.40934</ele>
        <time>2022-08-10T08:13:17Z</time>
      </trkpt>
      <trkpt lat="43.58477" lon="3.71986">
        <ele>114.268639</ele>
        <time>2022-08-10T08:13:27Z</time>
      </trkpt>
      <trkpt lat="43.58484" lon="3.72028">
        <ele>116.003258</ele>
        <time>2022-08-10T08:13:37Z</time>
      </trkpt>
      <trkpt lat="43.58492" lon="3.72071">
        <ele>117.89518</ele>
        <time>2022-08-10T08:13:47Z</time>
      </trkpt>
      <trkpt lat="43.58497" lon="3.72113">
        <ele>119.560387</ele>
        <time>2022-08-10T08:13:57Z</time>
      </trkpt>
      <trkpt lat="43.58502" lon="3.72155">
        <ele>120.861</ele>
        <time>2022-08-10T08:14:07Z</time>
      </trkpt>
      <trkpt lat="43.58508" lon="3.72198">
        <ele>121.855873</ele>
        <time>2022-08-10T08:14:17Z</time>
      </trkpt>
      <trkpt lat="43.58512" lon="3.7224">
        <ele>122.32357</ele>
        <time>2022-08-10T08:14:27Z</time>
      </trkpt>
      <trkpt lat="43.58517" lon="3.72281">
        <ele>122.553551</ele>
        <time>2022-08-10T08:14:37Z</time>
      </trkpt>
      <trkpt lat="43.5854" lon="3.72302">
        <ele>122.41024</ele>
        <time>2022-08-10T08:14:47Z</time>
      </trkpt>
      <trkpt lat="43.58546" lon="3.7233">
        <ele>121.965065</ele>
        <time>2022-08-10T08:18:07Z</time>
      </trkpt>
      <trkpt lat="43.58524" lon="3.72335">
        <ele>121.1</ele>
        <time>2022-08-10T08:18:17Z</time>
      </trkpt>
      <trkpt lat="43.58511" lon="3.72361">
        <ele>121</ele>
      </trkpt>
      <trkpt lat="43.58505" lon="3.72393">
        <ele>120.7</ele>
        <time>2022-08-10T08:18:27Z</time>
      </trkpt>
      <trkpt lat="43.58495" lon="3.72418">
        <ele>120</ele>
      </trkpt>
      <trkpt lat="43.58479" lon="3.72429">
        <ele>121.18502</ele>
        <time>2022-08-10T08:18:37Z</time>
      </trkpt>
      <trkpt lat="43.58445" lon="3.72471">
        <ele>120.57502</ele>
        <time>2022-08-10T08:18:47Z</time>
      </trkpt>
      <trkpt lat="43.58413" lon="3.72513">
        <ele>119.21862</ele>
        <time>2022-08-10T08:18:57Z</time>
      </trkpt>
      <trkpt lat="43.5843" lon="3.72522">
        <ele>118.195961</ele>
        <time>2022-08-10T08:19:07Z</time>
      </trkpt>
      <trkpt lat="43.58458" lon="3.72519">
        <ele>118.128906</ele>
        <time>2022-08-10T08:19:17Z</time>
      </trkpt>
      <trkpt lat="43.58474" lon="3.72533">
        <ele>117.442139</ele>
        <time>2022-08-10T08:19:27Z</time>
      </trkpt>
      <trkpt lat="43.585" lon="3.72555">
        <ele>116.471962</ele>
        <time>2022-08-10T08:19:37Z</time>
      </trkpt>
      <trkpt lat="43.58516" lon="3.72575">
        <ele>115.6</ele>
      </trkpt>
      <trkpt lat="43.58513" lon="3.72595">
        <ele>114.638863</ele>
        <time>2022-08-10T08:19:47Z</time>
      </trkpt>
      <trkpt lat="43.58491" lon="3.7263">
        <ele>113.076576</ele>
        <time>2022-08-10T08:19:57Z</time>
      </trkpt>
      <trkpt lat="43.58476" lon="3.72655">
        <ele>112.147789</ele>
        <time>2022-08-10T08:20:07Z</time>
      </trkpt>
      <trkpt lat="43.58457" lon="3.72681">
        <ele>111.234131</ele>
        <time>2022-08-10T08:20:17Z</time>
      </trkpt>
      <trkpt lat="43.58435" lon="3.72719">
        <ele>110.274254</ele>
        <time>2022-08-10T08:20:27Z</time>
      </trkpt>
      <trkpt lat="43.58412" lon="3.72754">
        <ele>108.639519</ele>
        <time>2022-08-10T08:20:37Z</time>
      </trkpt>
      <trkpt lat="43.58392" lon="3.7279">
        <ele>107.78524</ele>
        <time>2022-08-10T08:20:57Z</time>
      </trkpt>
      <trkpt lat="43.58375" lon="3.72812">
        <ele>107.095947</ele>
        <time>2022-08-10T08:21:37Z</time>
      </trkpt>
      <trkpt lat="43.58352" lon="3.72844">
        <ele>106.31234</ele>
        <time>2022-08-10T08:21:57Z</time>
      </trkpt>
      <trkpt lat="43.58342" lon="3.72868">
        <ele>105.647461</ele>
        <time>2022-08-10T08:22:07Z</time>
      </trkpt>
      <trkpt lat="43.58334" lon="3.72902">
        <ele>104.375061</ele>
        <time>2022-08-10T08:22:17Z</time>
      </trkpt>
      <trkpt lat="43.58323" lon="3.72929">
        <ele>102.647949</ele>
        <time>2022-08-10T08:22:27Z</time>
      </trkpt>
      <trkpt lat="43.58312" lon="3.72954">
        <ele>101.821136</ele>
        <time>2022-08-10T08:22:37Z</time>
      </trkpt>
      <trkpt lat="43.58294" lon="3.72974">
        <ele>101.532127</ele>
        <time>2022-08-10T08:22:47Z</time>
      </trkpt>
      <trkpt lat="43.58286" lon="3.73011">
        <ele>100.657387</ele>
        <time>2022-08-10T08:22:57Z</time>
      </trkpt>
      <trkpt lat="43.58264" lon="3.73036">
        <ele>99.433838</ele>
        <time>2022-08-10T08:23:07Z</time>
      </trkpt>
      <trkpt lat="43.58247" lon="3.73066">
        <ele>98.963219</ele>
        <time>2022-08-10T08:23:17Z</time>
      </trkpt>
      <trkpt lat="43.58233" lon="3.73115">
        <ele>97.964172</ele>
        <time>2022-08-10T08:23:27Z</time>
      </trkpt>
      <trkpt lat="43.58238" lon="3.7316">
        <ele>96.365234</ele>
        <time>2022-08-10T08:23:37Z</time>
      </trkpt>
      <trkpt lat="43.58247" lon="3.73194">
        <ele>94.531883</ele>
        <time>2022-08-10T08:23:47Z</time>
      </trkpt>
      <trkpt lat="43.58241" lon="3.7323">
        <ele>93.490051</ele>
        <time>2022-08-10T08:23:57Z</time>
      </trkpt>
      <trkpt lat="43.58246" lon="3.73263">
        <ele>91.878136</ele>
        <time>2022-08-10T08:24:07Z</time>
      </trkpt>
      <trkpt lat="43.58237" lon="3.73285">
        <ele>91.19101</ele>
        <time>2022-08-10T08:24:27Z</time>
      </trkpt>
      <trkpt lat="43.58229" lon="3.73305">
        <ele>91.076111</ele>
        <time>2022-08-10T08:24:37Z</time>
      </trkpt>
      <trkpt lat="43.58219" lon="3.73319">
        <ele>90.967255</ele>
        <time>2022-08-10T08:24:47Z</time>
      </trkpt>
      <trkpt lat="43.58206" lon="3.73331">
        <ele>90.969872</ele>
        <time>2022-08-10T08:24:57Z</time>
      </trkpt>
      <trkpt lat="43.58191" lon="3.73349">
        <ele>91.256042</ele>
        <time>2022-08-10T08:25:07Z</time>
      </trkpt>
      <trkpt lat="43.58201" lon="3.73372">
        <ele>91.124626</ele>
        <time>2022-08-10T08:25:37Z</time>
      </trkpt>
      <trkpt lat="43.58223" lon="3.73402">
        <ele>90.175499</ele>
        <time>2022-08-10T08:25:57Z</time>
      </trkpt>
      <trkpt lat="43.58239" lon="3.73433">
        <ele>89.026794</ele>
        <time>2022-08-10T08:26:07Z</time>
      </trkpt>
      <trkpt lat="43.58257" lon="3.73456">
        <ele>87.941292</ele>
        <time>2022-08-10T08:26:17Z</time>
      </trkpt>
      <trkpt lat="43.5826" lon="3.7348">
        <ele>87.203773</ele>
        <time>2022-08-10T08:27:27Z</time>
      </trkpt>
      <trkpt lat="43.58272" lon="3.73518">
        <ele>86.630699</ele>
        <time>2022-08-10T08:27:47Z</time>
      </trkpt>
      <trkpt lat="43.58279" lon="3.73541">
        <ele>86.158043</ele>
        <time>2022-08-10T08:28:07Z</time>
      </trkpt>
      <trkpt lat="43.58285" lon="3.73582">
        <ele>85.317879</ele>
        <time>2022-08-10T08:28:17Z</time>
      </trkpt>
      <trkpt lat="43.58272" lon="3.73631">
        <ele>82.758995</ele>
        <time>2022-08-10T08:28:27Z</time>
      </trkpt>
      <trkpt lat="43.58263" lon="3.73639">
        <ele>79.37793</ele>
        <time>2022-08-10T08:28:57Z</time>
      </trkpt>
      <trkpt lat="43.58253" lon="3.73652">
        <ele>79.857422</ele>
        <time>2022-08-10T08:29:17Z</time>
      </trkpt>
      <trkpt lat="43.58233" lon="3.73685">
        <ele>78.474113</ele>
        <time>2022-08-10T08:29:27Z</time>
      </trkpt>
      <trkpt lat="43.58198" lon="3.73708">
        <ele>76.632317</ele>
        <time>2022-08-10T08:29:37Z</time>
      </trkpt>
      <trkpt lat="43.58172" lon="3.73742">
        <ele>75.847054</ele>
        <time>2022-08-10T08:29:47Z</time>
      </trkpt>
      <trkpt lat="43.58138" lon="3.73756">
        <ele>74.522461</ele>
        <time>2022-08-10T08:29:57Z</time>
      </trkpt>
      <trkpt lat="43.58102" lon="3.73763">
        <ele>75.024803</ele>
        <time>2022-08-10T08:30:07Z</time>
      </trkpt>
      <trkpt lat="43.58072" lon="3.73779">
        <ele>75.989288</ele>
        <time>2022-08-10T08:30:17Z</time>
      </trkpt>
      <trkpt lat="43.58039" lon="3.73811">
        <ele>75.456055</ele>
        <time>2022-08-10T08:30:27Z</time>
      </trkpt>
      <trkpt lat="43.58012" lon="3.73865">
        <ele>75.333626</ele>
        <time>2022-08-10T08:30:37Z</time>
      </trkpt>
      <trkpt lat="43.57987" lon="3.73915">
        <ele>74.229233</ele>
        <time>2022-08-10T08:30:47Z</time>
      </trkpt>
      <trkpt lat="43.5796" lon="3.73968">
        <ele>74.339348</ele>
        <time>2022-08-10T08:30:57Z</time>
      </trkpt>
      <trkpt lat="43.57938" lon="3.74021">
        <ele>73.543213</ele>
        <time>2022-08-10T08:31:07Z</time>
      </trkpt>
      <trkpt lat="43.57894" lon="3.74025">
        <ele>72.894432</ele>
        <time>2022-08-10T08:31:17Z</time>
      </trkpt>
      <trkpt lat="43.57854" lon="3.74033">
        <ele>73.848244</ele>
        <time>2022-08-10T08:31:27Z</time>
      </trkpt>
      <trkpt lat="43.57817" lon="3.74069">
        <ele>72.496513</ele>
        <time>2022-08-10T08:31:37Z</time>
      </trkpt>
      <trkpt lat="43.57777" lon="3.74122">
        <ele>69.646202</ele>
        <time>2022-08-10T08:31:47Z</time>
      </trkpt>
      <trkpt lat="43.57753" lon="3.74161">
        <ele>66.803642</ele>
        <time>2022-08-10T08:31:57Z</time>
      </trkpt>
      <trkpt lat="43.57745" lon="3.74208">
        <ele>63.763306</ele>
        <time>2022-08-10T08:32:07Z</time>
      </trkpt>
      <trkpt lat="43.57743" lon="3.74258">
        <ele>61.402744</ele>
        <time>2022-08-10T08:32:17Z</time>
      </trkpt>
      <trkpt lat="43.57741" lon="3.74282">
        <ele>58.962616</ele>
        <time>2022-08-10T08:32:27Z</time>
      </trkpt>
      <trkpt lat="43.57732" lon="3.74293">
        <ele>57.926208</ele>
        <time>2022-08-10T08:32:37Z</time>
      </trkpt>
      <trkpt lat="43.57729" lon="3.743">
        <ele>57.058674</ele>
        <time>2022-08-10T08:32:47Z</time>
      </trkpt>
      <trkpt lat="43.57721" lon="3.74275">
        <ele>57.052673</ele>
        <time>2022-08-10T08:32:57Z</time>
      </trkpt>
      <trkpt lat="43.57699" lon="3.7425">
        <ele>58.006042</ele>
        <time>2022-08-10T08:33:07Z</time>
      </trkpt>
      <trkpt lat="43.57676" lon="3.7424">
        <ele>58.199417</ele>
        <time>2022-08-10T08:33:17Z</time>
      </trkpt>
      <trkpt lat="43.57649" lon="3.74232">
        <ele>57.631657</ele>
        <time>2022-08-10T08:33:27Z</time>
      </trkpt>
      <trkpt lat="43.5765" lon="3.74206">
        <ele>57.462971</ele>
        <time>2022-08-10T08:33:37Z</time>
      </trkpt>
      <trkpt lat="43.57644" lon="3.7418">
        <ele>59.339844</ele>
        <time>2022-08-10T08:33:47Z</time>
      </trkpt>
      <trkpt lat="43.57662" lon="3.74188">
        <ele>60.297852</ele>
        <time>2022-08-10T08:33:57Z</time>
      </trkpt>
      <trkpt lat="43.57692" lon="3.74222">
        <ele>59.858398</ele>
        <time>2022-08-10T08:34:07Z</time>
      </trkpt>
      <trkpt lat="43.57723" lon="3.74252">
        <ele>59.396988</ele>
        <time>2022-08-10T08:34:17Z</time>
      </trkpt>
      <trkpt lat="43.57755" lon="3.74289">
        <ele>58.965405</ele>
        <time>2022-08-10T08:34:27Z</time>
      </trkpt>
      <trkpt lat="43.5779" lon="3.7433">
        <ele>59.383221</ele>
        <time>2022-08-10T08:34:37Z</time>
      </trkpt>
      <trkpt lat="43.57822" lon="3.74374">
        <ele>60.34193</ele>
        <time>2022-08-10T08:34:47Z</time>
      </trkpt>
      <trkpt lat="43.57848" lon="3.74423">
        <ele>61.584911</ele>
        <time>2022-08-10T08:34:57Z</time>
      </trkpt>
      <trkpt lat="43.57874" lon="3.74475">
        <ele>61.813976</ele>
        <time>2022-08-10T08:35:07Z</time>
      </trkpt>
      <trkpt lat="43.57901" lon="3.7453">
        <ele>61.65778</ele>
        <time>2022-08-10T08:35:17Z</time>
      </trkpt>
      <trkpt lat="43.57927" lon="3.74581">
        <ele>60.49271</ele>
        <time>2022-08-10T08:35:27Z</time>
      </trkpt>
      <trkpt lat="43.57924" lon="3.746">
        <ele>58.700298</ele>
        <time>2022-08-10T08:35:37Z</time>
      </trkpt>
      <trkpt lat="43.57906" lon="3.74553">
        <ele>58.779327</ele>
        <time>2022-08-10T08:35:47Z</time>
      </trkpt>
      <trkpt lat="43.57885" lon="3.74511">
        <ele>60.434391</ele>
        <time>2022-08-10T08:35:57Z</time>
      </trkpt>
      <trkpt lat="43.57863" lon="3.74467">
        <ele>60.98444</ele>
        <time>2022-08-10T08:36:07Z</time>
      </trkpt>
      <trkpt lat="43.57838" lon="3.74424">
        <ele>61.139252</ele>
        <time>2022-08-10T08:36:17Z</time>
      </trkpt>
      <trkpt lat="43.57809" lon="3.74439">
        <ele>60.069073</ele>
        <time>2022-08-10T08:36:27Z</time>
      </trkpt>
      <trkpt lat="43.5776" lon="3.7451">
        <ele>55.782879</ele>
        <time>2022-08-10T08:36:37Z</time>
      </trkpt>
      <trkpt lat="43.57709" lon="3.74585">
        <ele>50.926346</ele>
        <time>2022-08-10T08:36:47Z</time>
      </trkpt>
      <trkpt lat="43.57659" lon="3.74656">
        <ele>49.520039</ele>
        <time>2022-08-10T08:36:57Z</time>
      </trkpt>
      <trkpt lat="43.57612" lon="3.74721">
        <ele>48.162922</ele>
        <time>2022-08-10T08:37:07Z</time>
      </trkpt>
      <trkpt lat="43.57571" lon="3.74781">
        <ele>47.414795</ele>
        <time>2022-08-10T08:37:17Z</time>
      </trkpt>
      <trkpt lat="43.57565" lon="3.74835">
        <ele>46.537678</ele>
        <time>2022-08-10T08:37:27Z</time>
      </trkpt>
      <trkpt lat="43.57584" lon="3.74901">
        <ele>45.67049</ele>
        <time>2022-08-10T08:37:37Z</time>
      </trkpt>
      <trkpt lat="43.57606" lon="3.74973">
        <ele>44.638752</ele>
        <time>2022-08-10T08:37:47Z</time>
      </trkpt>
      <trkpt lat="43.57632" lon="3.75046">
        <ele>43.796696</ele>
        <time>2022-08-10T08:37:57Z</time>
      </trkpt>
      <trkpt lat="43.57662" lon="3.75114">
        <ele>43.480591</ele>
        <time>2022-08-10T08:38:07Z</time>
      </trkpt>
      <trkpt lat="43.57691" lon="3.75183">
        <ele>42.807781</ele>
        <time>2022-08-10T08:38:17Z</time>
      </trkpt>
      <trkpt lat="43.57716" lon="3.75247">
        <ele>42.341164</ele>
        <time>2022-08-10T08:38:27Z</time>
      </trkpt>
      <trkpt lat="43.57743" lon="3.75299">
        <ele>41.831215</ele>
        <time>2022-08-10T08:38:37Z</time>
      </trkpt>
      <trkpt lat="43.57772" lon="3.75345">
        <ele>42.161205</ele>
        <time>2022-08-10T08:38:47Z</time>
      </trkpt>
      <trkpt lat="43.57788" lon="3.75402">
        <ele>42.689663</ele>
        <time>2022-08-10T08:38:57Z</time>
      </trkpt>
      <trkpt lat="43.57809" lon="3.75456">
        <ele>43.017395</ele>
        <time>2022-08-10T08:39:07Z</time>
      </trkpt>
      <trkpt lat="43.57829" lon="3.75512">
        <ele>43.816669</ele>
        <time>2022-08-10T08:39:17Z</time>
      </trkpt>
      <trkpt lat="43.57843" lon="3.7557">
        <ele>44.157894</ele>
        <time>2022-08-10T08:39:27Z</time>
      </trkpt>
      <trkpt lat="43.57866" lon="3.7561">
        <ele>44.686035</ele>
        <time>2022-08-10T08:39:37Z</time>
      </trkpt>
      <trkpt lat="43.57864" lon="3.75652">
        <ele>45.079498</ele>
        <time>2022-08-10T08:39:47Z</time>
      </trkpt>
      <trkpt lat="43.57855" lon="3.75711">
        <ele>44.658279</ele>
        <time>2022-08-10T08:39:57Z</time>
      </trkpt>
      <trkpt lat="43.57847" lon="3.7578">
        <ele>43.722553</ele>
        <time>2022-08-10T08:40:07Z</time>
      </trkpt>
      <trkpt lat="43.57838" lon="3.75856">
        <ele>42.950489</ele>
        <time>2022-08-10T08:40:17Z</time>
      </trkpt>
      <trkpt lat="43.57826" lon="3.75946">
        <ele>42.233982</ele>
        <time>2022-08-10T08:40:27Z</time>
      </trkpt>
      <trkpt lat="43.57814" lon="3.76035">
        <ele>41.108871</ele>
        <time>2022-08-10T08:40:37Z</time>
      </trkpt>
      <trkpt lat="43.57814" lon="3.76126">
        <ele>40.126175</ele>
        <time>2022-08-10T08:40:47Z</time>
      </trkpt>
      <trkpt lat="43.57806" lon="3.76213">
        <ele>39.066326</ele>
        <time>2022-08-10T08:40:57Z</time>
      </trkpt>
      <trkpt lat="43.57811" lon="3.763">
        <ele>37.687344</ele>
        <time>2022-08-10T08:41:07Z</time>
      </trkpt>
      <trkpt lat="43.57823" lon="3.76384">
        <ele>37.357956</ele>
        <time>2022-08-10T08:41:17Z</time>
      </trkpt>
      <trkpt lat="43.5784" lon="3.76457">
        <ele>37.414631</ele>
        <time>2022-08-10T08:41:27Z</time>
      </trkpt>
      <trkpt lat="43.57861" lon="3.7652">
        <ele>36.895752</ele>
        <time>2022-08-10T08:41:37Z</time>
      </trkpt>
      <trkpt lat="43.57885" lon="3.7658">
        <ele>37.106037</ele>
        <time>2022-08-10T08:41:47Z</time>
      </trkpt>
      <trkpt lat="43.57915" lon="3.76643">
        <ele>37.532879</ele>
        <time>2022-08-10T08:41:57Z</time>
      </trkpt>
      <trkpt lat="43.57946" lon="3.76707">
        <ele>37.88924</ele>
        <time>2022-08-10T08:42:07Z</time>
      </trkpt>
      <trkpt lat="43.57991" lon="3.76747">
        <ele>38.381428</ele>
        <time>2022-08-10T08:42:17Z</time>
      </trkpt>
      <trkpt lat="43.58019" lon="3.76798">
        <ele>39.165497</ele>
        <time>2022-08-10T08:42:27Z</time>
      </trkpt>
      <trkpt lat="43.58026" lon="3.76867">
        <ele>39.736874</ele>
        <time>2022-08-10T08:42:37Z</time>
      </trkpt>
      <trkpt lat="43.58057" lon="3.76929">
        <ele>39.358807</ele>
        <time>2022-08-10T08:42:47Z</time>
      </trkpt>
      <trkpt lat="43.58089" lon="3.76993">
        <ele>38.943844</ele>
        <time>2022-08-10T08:42:57Z</time>
      </trkpt>
      <trkpt lat="43.58122" lon="3.77059">
        <ele>38.20874</ele>
        <time>2022-08-10T08:43:07Z</time>
      </trkpt>
      <trkpt lat="43.58156" lon="3.77126">
        <ele>37.248699</ele>
        <time>2022-08-10T08:43:17Z</time>
      </trkpt>
      <trkpt lat="43.58188" lon="3.77191">
        <ele>36.703831</ele>
        <time>2022-08-10T08:43:27Z</time>
      </trkpt>
      <trkpt lat="43.5822" lon="3.77255">
        <ele>36.299114</ele>
        <time>2022-08-10T08:43:37Z</time>
      </trkpt>
      <trkpt lat="43.58252" lon="3.77319">
        <ele>36.376385</ele>
        <time>2022-08-10T08:43:47Z</time>
      </trkpt>
      <trkpt lat="43.58285" lon="3.77384">
        <ele>36.423595</ele>
        <time>2022-08-10T08:43:57Z</time>
      </trkpt>
      <trkpt lat="43.58316" lon="3.77446">
        <ele>36.154636</ele>
        <time>2022-08-10T08:44:07Z</time>
      </trkpt>
      <trkpt lat="43.58347" lon="3.77508">
        <ele>36</ele>
        <time>2022-08-10T08:44:17Z</time>
      </trkpt>
      <trkpt lat="43.58377" lon="3.77571">
        <ele>36.224445</ele>
        <time>2022-08-10T08:44:27Z</time>
      </trkpt>
      <trkpt lat="43.58407" lon="3.77631">
        <ele>36.5089</ele>
        <time>2022-08-10T08:44:37Z</time>
      </trkpt>
      <trkpt lat="43.58435" lon="3.77692">
        <ele>36.189999</ele>
        <time>2022-08-10T08:44:47Z</time>
      </trkpt>
      <trkpt lat="43.58458" lon="3.77757">
        <ele>36.445721</ele>
        <time>2022-08-10T08:44:57Z</time>
      </trkpt>
      <trkpt lat="43.58477" lon="3.77819">
        <ele>36.710125</ele>
        <time>2022-08-10T08:45:07Z</time>
      </trkpt>
      <trkpt lat="43.58479" lon="3.77869">
        <ele>36.946209</ele>
        <time>2022-08-10T08:45:17Z</time>
      </trkpt>
      <trkpt lat="43.58503" lon="3.77909">
        <ele>37.08374</ele>
        <time>2022-08-10T08:45:27Z</time>
      </trkpt>
      <trkpt lat="43.58493" lon="3.77982">
        <ele>37.432354</ele>
        <time>2022-08-10T08:45:37Z</time>
      </trkpt>
      <trkpt lat="43.58489" lon="3.78059">
        <ele>38.758682</ele>
        <time>2022-08-10T08:45:47Z</time>
      </trkpt>
      <trkpt lat="43.5849" lon="3.7813">
        <ele>40.120823</ele>
        <time>2022-08-10T08:45:57Z</time>
      </trkpt>
      <trkpt lat="43.5849" lon="3.78201">
        <ele>40.525333</ele>
        <time>2022-08-10T08:46:07Z</time>
      </trkpt>
      <trkpt lat="43.58492" lon="3.78271">
        <ele>41.170204</ele>
        <time>2022-08-10T08:46:17Z</time>
      </trkpt>
      <trkpt lat="43.58502" lon="3.78345">
        <ele>41.822102</ele>
        <time>2022-08-10T08:46:27Z</time>
      </trkpt>
      <trkpt lat="43.58518" lon="3.78422">
        <ele>43.326336</ele>
        <time>2022-08-10T08:46:37Z</time>
      </trkpt>
      <trkpt lat="43.58536" lon="3.78503">
        <ele>44.483704</ele>
        <time>2022-08-10T08:46:47Z</time>
      </trkpt>
      <trkpt lat="43.58557" lon="3.78591">
        <ele>43.953613</ele>
        <time>2022-08-10T08:46:57Z</time>
      </trkpt>
      <trkpt lat="43.58576" lon="3.78679">
        <ele>41.587288</ele>
        <time>2022-08-10T08:47:07Z</time>
      </trkpt>
      <trkpt lat="43.58593" lon="3.78764">
        <ele>39.31023</ele>
        <time>2022-08-10T08:47:17Z</time>
      </trkpt>
      <trkpt lat="43.58599" lon="3.78854">
        <ele>37.684769</ele>
        <time>2022-08-10T08:47:27Z</time>
      </trkpt>
      <trkpt lat="43.58597" lon="3.78935">
        <ele>36.032146</ele>
        <time>2022-08-10T08:47:37Z</time>
      </trkpt>
      <trkpt lat="43.58597" lon="3.79005">
        <ele>34.962811</ele>
        <time>2022-08-10T08:47:47Z</time>
      </trkpt>
      <trkpt lat="43.586" lon="3.79094">
        <ele>34.095623</ele>
        <time>2022-08-10T08:47:57Z</time>
      </trkpt>
      <trkpt lat="43.58611" lon="3.79182">
        <ele>33.889778</ele>
        <time>2022-08-10T08:48:07Z</time>
      </trkpt>
      <trkpt lat="43.58627" lon="3.79256">
        <ele>33.958984</ele>
        <time>2022-08-10T08:48:17Z</time>
      </trkpt>
      <trkpt lat="43.58647" lon="3.79324">
        <ele>34.294598</ele>
        <time>2022-08-10T08:48:27Z</time>
      </trkpt>
      <trkpt lat="43.58672" lon="3.79388">
        <ele>34.40662</ele>
        <time>2022-08-10T08:48:37Z</time>
      </trkpt>
      <trkpt lat="43.587" lon="3.79451">
        <ele>34.723892</ele>
        <time>2022-08-10T08:48:47Z</time>
      </trkpt>
      <trkpt lat="43.5873" lon="3.79514">
        <ele>34.893055</ele>
        <time>2022-08-10T08:48:57Z</time>
      </trkpt>
      <trkpt lat="43.58761" lon="3.79578">
        <ele>34.718166</ele>
        <time>2022-08-10T08:49:07Z</time>
      </trkpt>
      <trkpt lat="43.58792" lon="3.79642">
        <ele>35.201824</ele>
        <time>2022-08-10T08:49:17Z</time>
      </trkpt>
      <trkpt lat="43.58823" lon="3.79704">
        <ele>35.71175</ele>
        <time>2022-08-10T08:49:27Z</time>
      </trkpt>
      <trkpt lat="43.58852" lon="3.79766">
        <ele>36.276676</ele>
        <time>2022-08-10T08:49:37Z</time>
      </trkpt>
      <trkpt lat="43.58881" lon="3.79826">
        <ele>37.678177</ele>
        <time>2022-08-10T08:49:47Z</time>
      </trkpt>
      <trkpt lat="43.58909" lon="3.79886">
        <ele>38.891071</ele>
        <time>2022-08-10T08:49:57Z</time>
      </trkpt>
      <trkpt lat="43.58938" lon="3.79944">
        <ele>39.758808</ele>
        <time>2022-08-10T08:50:07Z</time>
      </trkpt>
      <trkpt lat="43.58966" lon="3.8">
        <ele>40.607098</ele>
        <time>2022-08-10T08:50:17Z</time>
      </trkpt>
      <trkpt lat="43.58995" lon="3.80054">
        <ele>41.611309</ele>
        <time>2022-08-10T08:50:27Z</time>
      </trkpt>
      <trkpt lat="43.59023" lon="3.8009">
        <ele>42.624592</ele>
        <time>2022-08-10T08:50:37Z</time>
      </trkpt>
      <trkpt lat="43.59037" lon="3.80144">
        <ele>42.89925</ele>
        <time>2022-08-10T08:50:47Z</time>
      </trkpt>
      <trkpt lat="43.59065" lon="3.80206">
        <ele>43.285549</ele>
        <time>2022-08-10T08:50:57Z</time>
      </trkpt>
      <trkpt lat="43.59085" lon="3.80265">
        <ele>43.637207</ele>
        <time>2022-08-10T08:51:07Z</time>
      </trkpt>
      <trkpt lat="43.59096" lon="3.80333">
        <ele>43.421551</ele>
        <time>2022-08-10T08:51:17Z</time>
      </trkpt>
      <trkpt lat="43.59097" lon="3.80401">
        <ele>42.62455</ele>
        <time>2022-08-10T08:51:27Z</time>
      </trkpt>
      <trkpt lat="43.59086" lon="3.80474">
        <ele>41.562336</ele>
        <time>2022-08-10T08:51:37Z</time>
      </trkpt>
      <trkpt lat="43.59048" lon="3.80561">
        <ele>40.652699</ele>
        <time>2022-08-10T08:51:47Z</time>
      </trkpt>
      <trkpt lat="43.58994" lon="3.80641">
        <ele>40.407349</ele>
        <time>2022-08-10T08:51:57Z</time>
      </trkpt>
      <trkpt lat="43.58937" lon="3.80721">
        <ele>39.748646</ele>
        <time>2022-08-10T08:52:07Z</time>
      </trkpt>
      <trkpt lat="43.58888" lon="3.80788">
        <ele>37.79948</ele>
        <time>2022-08-10T08:52:17Z</time>
      </trkpt>
      <trkpt lat="43.58842" lon="3.80854">
        <ele>35.353741</ele>
        <time>2022-08-10T08:52:27Z</time>
      </trkpt>
      <trkpt lat="43.58804" lon="3.80924">
        <ele>32.600506</ele>
        <time>2022-08-10T08:52:37Z</time>
      </trkpt>
      <trkpt lat="43.5881" lon="3.81003">
        <ele>29.970703</ele>
        <time>2022-08-10T08:52:47Z</time>
      </trkpt>
      <trkpt lat="43.58839" lon="3.81073">
        <ele>27.757324</ele>
        <time>2022-08-10T08:52:57Z</time>
      </trkpt>
      <trkpt lat="43.58886" lon="3.81123">
        <ele>27.362549</ele>
        <time>2022-08-10T08:53:07Z</time>
      </trkpt>
      <trkpt lat="43.58935" lon="3.81167">
        <ele>27.602865</ele>
        <time>2022-08-10T08:53:17Z</time>
      </trkpt>
      <trkpt lat="43.58984" lon="3.81212">
        <ele>28.075195</ele>
        <time>2022-08-10T08:53:27Z</time>
      </trkpt>
      <trkpt lat="43.59028" lon="3.81258">
        <ele>29.051107</ele>
        <time>2022-08-10T08:53:37Z</time>
      </trkpt>
      <trkpt lat="43.59065" lon="3.81311">
        <ele>29.377848</ele>
        <time>2022-08-10T08:53:47Z</time>
      </trkpt>
      <trkpt lat="43.59097" lon="3.81372">
        <ele>29.208822</ele>
        <time>2022-08-10T08:53:57Z</time>
      </trkpt>
      <trkpt lat="43.59124" lon="3.81442">
        <ele>28.412516</ele>
        <time>2022-08-10T08:54:07Z</time>
      </trkpt>
      <trkpt lat="43.59143" lon="3.81509">
        <ele>27.525879</ele>
        <time>2022-08-10T08:54:17Z</time>
      </trkpt>
      <trkpt lat="43.59156" lon="3.81565">
        <ele>27.60885</ele>
        <time>2022-08-10T08:54:27Z</time>
      </trkpt>
      <trkpt lat="43.59169" lon="3.81622">
        <ele>27.934717</ele>
        <time>2022-08-10T08:54:37Z</time>
      </trkpt>
      <trkpt lat="43.59186" lon="3.81682">
        <ele>28.087891</ele>
        <time>2022-08-10T08:54:47Z</time>
      </trkpt>
      <trkpt lat="43.59205" lon="3.81742">
        <ele>28.599661</ele>
        <time>2022-08-10T08:54:57Z</time>
      </trkpt>
      <trkpt lat="43.59238" lon="3.81784">
        <ele>28.870337</ele>
        <time>2022-08-10T08:55:07Z</time>
      </trkpt>
      <trkpt lat="43.59268" lon="3.81834">
        <ele>28.494394</ele>
        <time>2022-08-10T08:55:17Z</time>
      </trkpt>
      <trkpt lat="43.59281" lon="3.81902">
        <ele>27.69043</ele>
        <time>2022-08-10T08:55:27Z</time>
      </trkpt>
      <trkpt lat="43.59292" lon="3.81962">
        <ele>27.009848</ele>
        <time>2022-08-10T08:55:37Z</time>
      </trkpt>
      <trkpt lat="43.59312" lon="3.82012">
        <ele>27.111441</ele>
        <time>2022-08-10T08:55:47Z</time>
      </trkpt>
      <trkpt lat="43.59351" lon="3.82041">
        <ele>27.77923</ele>
        <time>2022-08-10T08:55:57Z</time>
      </trkpt>
      <trkpt lat="43.59351" lon="3.82081">
        <ele>27.99868</ele>
        <time>2022-08-10T08:56:07Z</time>
      </trkpt>
      <trkpt lat="43.59329" lon="3.82104">
        <ele>28.307121</ele>
        <time>2022-08-10T08:56:17Z</time>
      </trkpt>
      <trkpt lat="43.5932" lon="3.8214">
        <ele>28.831606</ele>
        <time>2022-08-10T08:56:27Z</time>
      </trkpt>
      <trkpt lat="43.59343" lon="3.82123">
        <ele>29.058174</ele>
        <time>2022-08-10T08:56:37Z</time>
      </trkpt>
      <trkpt lat="43.59365" lon="3.82099">
        <ele>28.326212</ele>
        <time>2022-08-10T08:56:47Z</time>
      </trkpt>
      <trkpt lat="43.59396" lon="3.82076">
        <ele>28.468588</ele>
        <time>2022-08-10T08:56:57Z</time>
      </trkpt>
      <trkpt lat="43.59423" lon="3.82098">
        <ele>30.868673</ele>
        <time>2022-08-10T08:57:07Z</time>
      </trkpt>
      <trkpt lat="43.59443" lon="3.8212">
        <ele>34.724979</ele>
        <time>2022-08-10T08:57:17Z</time>
      </trkpt>
      <trkpt lat="43.59463" lon="3.8214">
        <ele>37.76123</ele>
        <time>2022-08-10T08:57:27Z</time>
      </trkpt>
      <trkpt lat="43.59475" lon="3.8216">
        <ele>39.121418</ele>
        <time>2022-08-10T08:57:37Z</time>
      </trkpt>
      <trkpt lat="43.59478" lon="3.82181">
        <ele>40.464924</ele>
        <time>2022-08-10T08:57:47Z</time>
      </trkpt>
      <trkpt lat="43.59487" lon="3.8221">
        <ele>41.84367</ele>
        <time>2022-08-10T08:57:57Z</time>
      </trkpt>
      <trkpt lat="43.59503" lon="3.82236">
        <ele>43.74577</ele>
        <time>2022-08-10T08:58:07Z</time>
      </trkpt>
      <trkpt lat="43.59514" lon="3.82256">
        <ele>45.26001</ele>
        <time>2022-08-10T08:58:17Z</time>
      </trkpt>
      <trkpt lat="43.59528" lon="3.82276">
        <ele>46.809361</ele>
        <time>2022-08-10T08:58:27Z</time>
      </trkpt>
      <trkpt lat="43.59541" lon="3.82294">
        <ele>48.453297</ele>
        <time>2022-08-10T08:58:37Z</time>
      </trkpt>
      <trkpt lat="43.59553" lon="3.8231">
        <ele>50.160358</ele>
        <time>2022-08-10T08:58:47Z</time>
      </trkpt>
      <trkpt lat="43.59565" lon="3.82328">
        <ele>51.933529</ele>
        <time>2022-08-10T08:58:57Z</time>
      </trkpt>
      <trkpt lat="43.59577" lon="3.82346">
        <ele>53.6875</ele>
        <time>2022-08-10T08:59:07Z</time>
      </trkpt>
      <trkpt lat="43.59588" lon="3.82363">
        <ele>55.318134</ele>
        <time>2022-08-10T08:59:17Z</time>
      </trkpt>
      <trkpt lat="43.596" lon="3.82381">
        <ele>57.090435</ele>
        <time>2022-08-10T08:59:27Z</time>
      </trkpt>
      <trkpt lat="43.59612" lon="3.82401">
        <ele>58.972012</ele>
        <time>2022-08-10T08:59:37Z</time>
      </trkpt>
      <trkpt lat="43.59624" lon="3.82421">
        <ele>60.512554</ele>
        <time>2022-08-10T08:59:47Z</time>
      </trkpt>
      <trkpt lat="43.59636" lon="3.8244">
        <ele>61.870182</ele>
        <time>2022-08-10T08:59:57Z</time>
      </trkpt>
      <trkpt lat="43.59651" lon="3.82457">
        <ele>63.218029</ele>
        <time>2022-08-10T09:00:07Z</time>
      </trkpt>
      <trkpt lat="43.5967" lon="3.82476">
        <ele>64.342865</ele>
        <time>2022-08-10T09:00:17Z</time>
      </trkpt>
      <trkpt lat="43.59704" lon="3.82517">
        <ele>65.029289</ele>
        <time>2022-08-10T09:00:27Z</time>
      </trkpt>
      <trkpt lat="43.59753" lon="3.82578">
        <ele>65.773949</ele>
        <time>2022-08-10T09:00:37Z</time>
      </trkpt>
      <trkpt lat="43.59804" lon="3.82641">
        <ele>64.302757</ele>
        <time>2022-08-10T09:00:47Z</time>
      </trkpt>
      <trkpt lat="43.5984" lon="3.82707">
        <ele>62.660892</ele>
        <time>2022-08-10T09:00:57Z</time>
      </trkpt>
      <trkpt lat="43.59868" lon="3.82758">
        <ele>62.978825</ele>
        <time>2022-08-10T09:01:07Z</time>
      </trkpt>
      <trkpt lat="43.59903" lon="3.8279">
        <ele>64.565956</ele>
        <time>2022-08-10T09:01:17Z</time>
      </trkpt>
      <trkpt lat="43.59942" lon="3.82824">
        <ele>66.617455</ele>
        <time>2022-08-10T09:01:27Z</time>
      </trkpt>
      <trkpt lat="43.5999" lon="3.82861">
        <ele>66.893661</ele>
        <time>2022-08-10T09:01:37Z</time>
      </trkpt>
      <trkpt lat="43.60037" lon="3.82897">
        <ele>65.884888</ele>
        <time>2022-08-10T09:01:47Z</time>
      </trkpt>
      <trkpt lat="43.60083" lon="3.82946">
        <ele>64.454796</ele>
        <time>2022-08-10T09:01:57Z</time>
      </trkpt>
      <trkpt lat="43.60141" lon="3.83011">
        <ele>63.895721</ele>
        <time>2022-08-10T09:02:07Z</time>
      </trkpt>
      <trkpt lat="43.60195" lon="3.83082">
        <ele>62.727051</ele>
        <time>2022-08-10T09:02:17Z</time>
      </trkpt>
    </trkseg>
  </trk>
</gpx>